<?xml version="1.0" encoding="UTF-8" standalone="no" ?>
<gpx xmlns="http://www.topografix.com/GPX/1/1" xmlns:xsi="http://www.w3.org/2001/XMLSchema-instance" xsi:schemaLocation="http://www.topografix.com/GPX/1/1 http://www.topografix.com/GPX/1/1/gpx.xsd" version="1.1" creator="VisuGPX - https://www.visugpx.com">
  <metadata>
    <name>JARREZIENNE</name>
  </metadata>
  <trk>
    <name><![CDATA[4128693-JARREZIENNE VTT 43 KM]]></name>
    <extensions>
      <line xmlns="http://www.topografix.com/GPX/gpx_style/0/2">
        <color>0000FF</color>
        <width>4</width>
      </line>
    </extensions>
    <trkseg>
      <trkpt lat="45.67889" lon="4.70126">
        <ele>348</ele>
        <time>2022-09-25T21:31:29Z</time>
      </trkpt>
      <trkpt lat="45.67872" lon="4.70123">
        <ele>348</ele>
        <time>2022-09-25T21:31:33Z</time>
      </trkpt>
      <trkpt lat="45.67869" lon="4.70038">
        <ele>351</ele>
        <time>2022-09-25T21:31:47Z</time>
      </trkpt>
      <trkpt lat="45.67844" lon="4.69921">
        <ele>355</ele>
        <time>2022-09-25T21:32:07Z</time>
      </trkpt>
      <trkpt lat="45.67838" lon="4.69881">
        <ele>356</ele>
        <time>2022-09-25T21:32:14Z</time>
      </trkpt>
      <trkpt lat="45.67837" lon="4.69762">
        <ele>361</ele>
        <time>2022-09-25T21:32:33Z</time>
      </trkpt>
      <trkpt lat="45.67828" lon="4.69683">
        <ele>363</ele>
        <time>2022-09-25T21:32:46Z</time>
      </trkpt>
      <trkpt lat="45.67796" lon="4.69552">
        <ele>365</ele>
        <time>2022-09-25T21:33:09Z</time>
      </trkpt>
      <trkpt lat="45.6779" lon="4.69502">
        <ele>366</ele>
        <time>2022-09-25T21:33:17Z</time>
      </trkpt>
      <trkpt lat="45.67782" lon="4.69378">
        <ele>367</ele>
        <time>2022-09-25T21:33:37Z</time>
      </trkpt>
      <trkpt lat="45.67758" lon="4.69327">
        <ele>367</ele>
        <time>2022-09-25T21:33:47Z</time>
      </trkpt>
      <trkpt lat="45.67744" lon="4.69327">
        <ele>367</ele>
        <time>2022-09-25T21:33:51Z</time>
      </trkpt>
      <trkpt lat="45.67737" lon="4.69307">
        <ele>367</ele>
        <time>2022-09-25T21:33:54Z</time>
      </trkpt>
      <trkpt lat="45.67741" lon="4.69293">
        <ele>367</ele>
        <time>2022-09-25T21:33:57Z</time>
      </trkpt>
      <trkpt lat="45.67701" lon="4.69225">
        <ele>369</ele>
        <time>2022-09-25T21:34:11Z</time>
      </trkpt>
      <trkpt lat="45.67663" lon="4.69191">
        <ele>372</ele>
        <time>2022-09-25T21:34:22Z</time>
      </trkpt>
      <trkpt lat="45.67583" lon="4.69145">
        <ele>376</ele>
        <time>2022-09-25T21:34:42Z</time>
      </trkpt>
      <trkpt lat="45.67508" lon="4.69079">
        <ele>378</ele>
        <time>2022-09-25T21:35:02Z</time>
      </trkpt>
      <trkpt lat="45.6747" lon="4.69034">
        <ele>378</ele>
        <time>2022-09-25T21:35:14Z</time>
      </trkpt>
      <trkpt lat="45.67445" lon="4.68972">
        <ele>378</ele>
        <time>2022-09-25T21:35:26Z</time>
      </trkpt>
      <trkpt lat="45.67431" lon="4.68909">
        <ele>379</ele>
        <time>2022-09-25T21:35:36Z</time>
      </trkpt>
      <trkpt lat="45.67426" lon="4.68864">
        <ele>378</ele>
        <time>2022-09-25T21:35:44Z</time>
      </trkpt>
      <trkpt lat="45.67414" lon="4.68817">
        <ele>377</ele>
        <time>2022-09-25T21:35:52Z</time>
      </trkpt>
      <trkpt lat="45.67394" lon="4.6876">
        <ele>375</ele>
        <time>2022-09-25T21:36:02Z</time>
      </trkpt>
      <trkpt lat="45.67317" lon="4.6857">
        <ele>375</ele>
        <time>2022-09-25T21:36:38Z</time>
      </trkpt>
      <trkpt lat="45.67299" lon="4.68548">
        <ele>375</ele>
        <time>2022-09-25T21:36:44Z</time>
      </trkpt>
      <trkpt lat="45.6724" lon="4.68512">
        <ele>376</ele>
        <time>2022-09-25T21:36:59Z</time>
      </trkpt>
      <trkpt lat="45.67224" lon="4.68489">
        <ele>377</ele>
        <time>2022-09-25T21:37:04Z</time>
      </trkpt>
      <trkpt lat="45.67113" lon="4.68394">
        <ele>380</ele>
        <time>2022-09-25T21:37:34Z</time>
      </trkpt>
      <trkpt lat="45.67077" lon="4.68351">
        <ele>381</ele>
        <time>2022-09-25T21:37:45Z</time>
      </trkpt>
      <trkpt lat="45.67065" lon="4.68359">
        <ele>381</ele>
        <time>2022-09-25T21:37:48Z</time>
      </trkpt>
      <trkpt lat="45.67019" lon="4.684">
        <ele>379</ele>
        <time>2022-09-25T21:38:01Z</time>
      </trkpt>
      <trkpt lat="45.66969" lon="4.684">
        <ele>380</ele>
        <time>2022-09-25T21:38:13Z</time>
      </trkpt>
      <trkpt lat="45.66942" lon="4.68429">
        <ele>379</ele>
        <time>2022-09-25T21:38:20Z</time>
      </trkpt>
      <trkpt lat="45.66906" lon="4.68416">
        <ele>381</ele>
        <time>2022-09-25T21:38:29Z</time>
      </trkpt>
      <trkpt lat="45.66821" lon="4.68398">
        <ele>387</ele>
        <time>2022-09-25T21:38:49Z</time>
      </trkpt>
      <trkpt lat="45.6676" lon="4.68359">
        <ele>390</ele>
        <time>2022-09-25T21:39:05Z</time>
      </trkpt>
      <trkpt lat="45.6661" lon="4.6829">
        <ele>400</ele>
        <time>2022-09-25T21:39:42Z</time>
      </trkpt>
      <trkpt lat="45.66533" lon="4.68238">
        <ele>403</ele>
        <time>2022-09-25T21:40:01Z</time>
      </trkpt>
      <trkpt lat="45.66472" lon="4.68191">
        <ele>406</ele>
        <time>2022-09-25T21:40:18Z</time>
      </trkpt>
      <trkpt lat="45.6644" lon="4.68127">
        <ele>408</ele>
        <time>2022-09-25T21:40:30Z</time>
      </trkpt>
      <trkpt lat="45.66389" lon="4.68067">
        <ele>412</ele>
        <time>2022-09-25T21:40:46Z</time>
      </trkpt>
      <trkpt lat="45.66351" lon="4.68028">
        <ele>414</ele>
        <time>2022-09-25T21:40:57Z</time>
      </trkpt>
      <trkpt lat="45.66315" lon="4.68036">
        <ele>415</ele>
        <time>2022-09-25T21:41:05Z</time>
      </trkpt>
      <trkpt lat="45.66294" lon="4.68052">
        <ele>415</ele>
        <time>2022-09-25T21:41:11Z</time>
      </trkpt>
      <trkpt lat="45.6628" lon="4.68075">
        <ele>414</ele>
        <time>2022-09-25T21:41:16Z</time>
      </trkpt>
      <trkpt lat="45.66249" lon="4.68101">
        <ele>414</ele>
        <time>2022-09-25T21:41:24Z</time>
      </trkpt>
      <trkpt lat="45.662" lon="4.68126">
        <ele>412</ele>
        <time>2022-09-25T21:41:36Z</time>
      </trkpt>
      <trkpt lat="45.66156" lon="4.68136">
        <ele>409</ele>
        <time>2022-09-25T21:41:47Z</time>
      </trkpt>
      <trkpt lat="45.6614" lon="4.68127">
        <ele>408</ele>
        <time>2022-09-25T21:41:51Z</time>
      </trkpt>
      <trkpt lat="45.66093" lon="4.68093">
        <ele>408</ele>
        <time>2022-09-25T21:42:03Z</time>
      </trkpt>
      <trkpt lat="45.66048" lon="4.68052">
        <ele>406</ele>
        <time>2022-09-25T21:42:16Z</time>
      </trkpt>
      <trkpt lat="45.65989" lon="4.68008">
        <ele>404</ele>
        <time>2022-09-25T21:42:31Z</time>
      </trkpt>
      <trkpt lat="45.65891" lon="4.67912">
        <ele>403</ele>
        <time>2022-09-25T21:42:59Z</time>
      </trkpt>
      <trkpt lat="45.65843" lon="4.6784">
        <ele>400</ele>
        <time>2022-09-25T21:43:15Z</time>
      </trkpt>
      <trkpt lat="45.6582" lon="4.67796">
        <ele>400</ele>
        <time>2022-09-25T21:43:24Z</time>
      </trkpt>
      <trkpt lat="45.6579" lon="4.67676">
        <ele>403</ele>
        <time>2022-09-25T21:43:45Z</time>
      </trkpt>
      <trkpt lat="45.65771" lon="4.67631">
        <ele>403</ele>
        <time>2022-09-25T21:43:53Z</time>
      </trkpt>
      <trkpt lat="45.65757" lon="4.67613">
        <ele>402</ele>
        <time>2022-09-25T21:43:58Z</time>
      </trkpt>
      <trkpt lat="45.65736" lon="4.67612">
        <ele>402</ele>
        <time>2022-09-25T21:44:03Z</time>
      </trkpt>
      <trkpt lat="45.6571" lon="4.67622">
        <ele>404</ele>
        <time>2022-09-25T21:44:09Z</time>
      </trkpt>
      <trkpt lat="45.65682" lon="4.67618">
        <ele>405</ele>
        <time>2022-09-25T21:44:16Z</time>
      </trkpt>
      <trkpt lat="45.65653" lon="4.67628">
        <ele>408</ele>
        <time>2022-09-25T21:44:23Z</time>
      </trkpt>
      <trkpt lat="45.6563" lon="4.67641">
        <ele>410</ele>
        <time>2022-09-25T21:44:28Z</time>
      </trkpt>
      <trkpt lat="45.65606" lon="4.67648">
        <ele>411</ele>
        <time>2022-09-25T21:44:34Z</time>
      </trkpt>
      <trkpt lat="45.65585" lon="4.67659">
        <ele>413</ele>
        <time>2022-09-25T21:44:39Z</time>
      </trkpt>
      <trkpt lat="45.65482" lon="4.67688">
        <ele>415</ele>
        <time>2022-09-25T21:45:04Z</time>
      </trkpt>
      <trkpt lat="45.65443" lon="4.67714">
        <ele>419</ele>
        <time>2022-09-25T21:45:14Z</time>
      </trkpt>
      <trkpt lat="45.65393" lon="4.67734">
        <ele>422</ele>
        <time>2022-09-25T21:45:26Z</time>
      </trkpt>
      <trkpt lat="45.65332" lon="4.67799">
        <ele>423</ele>
        <time>2022-09-25T21:45:44Z</time>
      </trkpt>
      <trkpt lat="45.65325" lon="4.67786">
        <ele>423</ele>
        <time>2022-09-25T21:45:46Z</time>
      </trkpt>
      <trkpt lat="45.65293" lon="4.67744">
        <ele>426</ele>
        <time>2022-09-25T21:45:57Z</time>
      </trkpt>
      <trkpt lat="45.65262" lon="4.67719">
        <ele>428</ele>
        <time>2022-09-25T21:46:05Z</time>
      </trkpt>
      <trkpt lat="45.65183" lon="4.6768">
        <ele>433</ele>
        <time>2022-09-25T21:46:24Z</time>
      </trkpt>
      <trkpt lat="45.65048" lon="4.67583">
        <ele>452</ele>
        <time>2022-09-25T21:47:00Z</time>
      </trkpt>
      <trkpt lat="45.64976" lon="4.67492">
        <ele>463</ele>
        <time>2022-09-25T21:47:22Z</time>
      </trkpt>
      <trkpt lat="45.64936" lon="4.6745">
        <ele>464</ele>
        <time>2022-09-25T21:47:34Z</time>
      </trkpt>
      <trkpt lat="45.64905" lon="4.67437">
        <ele>466</ele>
        <time>2022-09-25T21:47:41Z</time>
      </trkpt>
      <trkpt lat="45.64849" lon="4.67422">
        <ele>470</ele>
        <time>2022-09-25T21:47:55Z</time>
      </trkpt>
      <trkpt lat="45.64823" lon="4.6732">
        <ele>475</ele>
        <time>2022-09-25T21:48:12Z</time>
      </trkpt>
      <trkpt lat="45.64845" lon="4.6727">
        <ele>474</ele>
        <time>2022-09-25T21:48:22Z</time>
      </trkpt>
      <trkpt lat="45.64872" lon="4.67197">
        <ele>474</ele>
        <time>2022-09-25T21:48:35Z</time>
      </trkpt>
      <trkpt lat="45.64875" lon="4.67176">
        <ele>474</ele>
        <time>2022-09-25T21:48:39Z</time>
      </trkpt>
      <trkpt lat="45.64879" lon="4.67165">
        <ele>474</ele>
        <time>2022-09-25T21:48:41Z</time>
      </trkpt>
      <trkpt lat="45.6497" lon="4.67119">
        <ele>472</ele>
        <time>2022-09-25T21:49:03Z</time>
      </trkpt>
      <trkpt lat="45.64997" lon="4.67098">
        <ele>473</ele>
        <time>2022-09-25T21:49:11Z</time>
      </trkpt>
      <trkpt lat="45.65032" lon="4.67063">
        <ele>475</ele>
        <time>2022-09-25T21:49:21Z</time>
      </trkpt>
      <trkpt lat="45.65067" lon="4.67019">
        <ele>476</ele>
        <time>2022-09-25T21:49:31Z</time>
      </trkpt>
      <trkpt lat="45.65093" lon="4.66998">
        <ele>475</ele>
        <time>2022-09-25T21:49:38Z</time>
      </trkpt>
      <trkpt lat="45.65111" lon="4.66997">
        <ele>473</ele>
        <time>2022-09-25T21:49:43Z</time>
      </trkpt>
      <trkpt lat="45.65121" lon="4.66993">
        <ele>472</ele>
        <time>2022-09-25T21:49:45Z</time>
      </trkpt>
      <trkpt lat="45.65159" lon="4.66949">
        <ele>470</ele>
        <time>2022-09-25T21:49:56Z</time>
      </trkpt>
      <trkpt lat="45.65193" lon="4.66885">
        <ele>467</ele>
        <time>2022-09-25T21:50:10Z</time>
      </trkpt>
      <trkpt lat="45.65198" lon="4.66868">
        <ele>467</ele>
        <time>2022-09-25T21:50:13Z</time>
      </trkpt>
      <trkpt lat="45.65199" lon="4.66842">
        <ele>466</ele>
        <time>2022-09-25T21:50:17Z</time>
      </trkpt>
      <trkpt lat="45.65197" lon="4.66823">
        <ele>466</ele>
        <time>2022-09-25T21:50:20Z</time>
      </trkpt>
      <trkpt lat="45.6519" lon="4.66803">
        <ele>466</ele>
        <time>2022-09-25T21:50:24Z</time>
      </trkpt>
      <trkpt lat="45.65166" lon="4.66754">
        <ele>466</ele>
        <time>2022-09-25T21:50:33Z</time>
      </trkpt>
      <trkpt lat="45.65163" lon="4.66734">
        <ele>467</ele>
        <time>2022-09-25T21:50:37Z</time>
      </trkpt>
      <trkpt lat="45.65163" lon="4.66706">
        <ele>467</ele>
        <time>2022-09-25T21:50:41Z</time>
      </trkpt>
      <trkpt lat="45.65167" lon="4.66698">
        <ele>467</ele>
        <time>2022-09-25T21:50:43Z</time>
      </trkpt>
      <trkpt lat="45.6519" lon="4.66707">
        <ele>465</ele>
        <time>2022-09-25T21:50:49Z</time>
      </trkpt>
      <trkpt lat="45.65211" lon="4.66706">
        <ele>464</ele>
        <time>2022-09-25T21:50:53Z</time>
      </trkpt>
      <trkpt lat="45.6523" lon="4.66697">
        <ele>463</ele>
        <time>2022-09-25T21:50:58Z</time>
      </trkpt>
      <trkpt lat="45.65246" lon="4.66685">
        <ele>464</ele>
        <time>2022-09-25T21:51:02Z</time>
      </trkpt>
      <trkpt lat="45.65277" lon="4.66667">
        <ele>463</ele>
        <time>2022-09-25T21:51:10Z</time>
      </trkpt>
      <trkpt lat="45.653" lon="4.66649">
        <ele>461</ele>
        <time>2022-09-25T21:51:16Z</time>
      </trkpt>
      <trkpt lat="45.65308" lon="4.66614">
        <ele>463</ele>
        <time>2022-09-25T21:51:22Z</time>
      </trkpt>
      <trkpt lat="45.65331" lon="4.66589">
        <ele>462</ele>
        <time>2022-09-25T21:51:29Z</time>
      </trkpt>
      <trkpt lat="45.65371" lon="4.6653">
        <ele>461</ele>
        <time>2022-09-25T21:51:42Z</time>
      </trkpt>
      <trkpt lat="45.65384" lon="4.66505">
        <ele>462</ele>
        <time>2022-09-25T21:51:48Z</time>
      </trkpt>
      <trkpt lat="45.65391" lon="4.66479">
        <ele>464</ele>
        <time>2022-09-25T21:51:52Z</time>
      </trkpt>
      <trkpt lat="45.65407" lon="4.66448">
        <ele>467</ele>
        <time>2022-09-25T21:51:58Z</time>
      </trkpt>
      <trkpt lat="45.6542" lon="4.66439">
        <ele>467</ele>
        <time>2022-09-25T21:52:02Z</time>
      </trkpt>
      <trkpt lat="45.6546" lon="4.66439">
        <ele>466</ele>
        <time>2022-09-25T21:52:11Z</time>
      </trkpt>
      <trkpt lat="45.65457" lon="4.66365">
        <ele>473</ele>
        <time>2022-09-25T21:52:23Z</time>
      </trkpt>
      <trkpt lat="45.654" lon="4.66252">
        <ele>485</ele>
        <time>2022-09-25T21:52:46Z</time>
      </trkpt>
      <trkpt lat="45.65397" lon="4.66205">
        <ele>487</ele>
        <time>2022-09-25T21:52:54Z</time>
      </trkpt>
      <trkpt lat="45.65376" lon="4.6619">
        <ele>490</ele>
        <time>2022-09-25T21:52:59Z</time>
      </trkpt>
      <trkpt lat="45.65355" lon="4.6617">
        <ele>494</ele>
        <time>2022-09-25T21:53:05Z</time>
      </trkpt>
      <trkpt lat="45.65329" lon="4.66156">
        <ele>498</ele>
        <time>2022-09-25T21:53:11Z</time>
      </trkpt>
      <trkpt lat="45.65296" lon="4.66155">
        <ele>504</ele>
        <time>2022-09-25T21:53:19Z</time>
      </trkpt>
      <trkpt lat="45.65247" lon="4.66183">
        <ele>512</ele>
        <time>2022-09-25T21:53:32Z</time>
      </trkpt>
      <trkpt lat="45.65212" lon="4.66186">
        <ele>515</ele>
        <time>2022-09-25T21:53:40Z</time>
      </trkpt>
      <trkpt lat="45.65182" lon="4.66172">
        <ele>519</ele>
        <time>2022-09-25T21:53:47Z</time>
      </trkpt>
      <trkpt lat="45.65129" lon="4.66178">
        <ele>523</ele>
        <time>2022-09-25T21:53:59Z</time>
      </trkpt>
      <trkpt lat="45.65099" lon="4.66194">
        <ele>525</ele>
        <time>2022-09-25T21:54:07Z</time>
      </trkpt>
      <trkpt lat="45.65061" lon="4.66223">
        <ele>527</ele>
        <time>2022-09-25T21:54:17Z</time>
      </trkpt>
      <trkpt lat="45.65032" lon="4.66261">
        <ele>527</ele>
        <time>2022-09-25T21:54:26Z</time>
      </trkpt>
      <trkpt lat="45.6501" lon="4.66272">
        <ele>528</ele>
        <time>2022-09-25T21:54:32Z</time>
      </trkpt>
      <trkpt lat="45.64903" lon="4.66196">
        <ele>533</ele>
        <time>2022-09-25T21:55:00Z</time>
      </trkpt>
      <trkpt lat="45.64903" lon="4.66172">
        <ele>534</ele>
        <time>2022-09-25T21:55:03Z</time>
      </trkpt>
      <trkpt lat="45.64995" lon="4.66033">
        <ele>534</ele>
        <time>2022-09-25T21:55:35Z</time>
      </trkpt>
      <trkpt lat="45.65009" lon="4.66">
        <ele>534</ele>
        <time>2022-09-25T21:55:41Z</time>
      </trkpt>
      <trkpt lat="45.65054" lon="4.65942">
        <ele>532</ele>
        <time>2022-09-25T21:55:55Z</time>
      </trkpt>
      <trkpt lat="45.65094" lon="4.65885">
        <ele>531</ele>
        <time>2022-09-25T21:56:08Z</time>
      </trkpt>
      <trkpt lat="45.65154" lon="4.6581">
        <ele>528</ele>
        <time>2022-09-25T21:56:27Z</time>
      </trkpt>
      <trkpt lat="45.65156" lon="4.65778">
        <ele>527</ele>
        <time>2022-09-25T21:56:32Z</time>
      </trkpt>
      <trkpt lat="45.65152" lon="4.65759">
        <ele>528</ele>
        <time>2022-09-25T21:56:35Z</time>
      </trkpt>
      <trkpt lat="45.65144" lon="4.65739">
        <ele>528</ele>
        <time>2022-09-25T21:56:39Z</time>
      </trkpt>
      <trkpt lat="45.65143" lon="4.65723">
        <ele>528</ele>
        <time>2022-09-25T21:56:42Z</time>
      </trkpt>
      <trkpt lat="45.65145" lon="4.65705">
        <ele>528</ele>
        <time>2022-09-25T21:56:45Z</time>
      </trkpt>
      <trkpt lat="45.65167" lon="4.6565">
        <ele>524</ele>
        <time>2022-09-25T21:56:55Z</time>
      </trkpt>
      <trkpt lat="45.6517" lon="4.65628">
        <ele>524</ele>
        <time>2022-09-25T21:56:59Z</time>
      </trkpt>
      <trkpt lat="45.65168" lon="4.65609">
        <ele>525</ele>
        <time>2022-09-25T21:57:02Z</time>
      </trkpt>
      <trkpt lat="45.65158" lon="4.65566">
        <ele>529</ele>
        <time>2022-09-25T21:57:09Z</time>
      </trkpt>
      <trkpt lat="45.65166" lon="4.65546">
        <ele>530</ele>
        <time>2022-09-25T21:57:13Z</time>
      </trkpt>
      <trkpt lat="45.65177" lon="4.65527">
        <ele>533</ele>
        <time>2022-09-25T21:57:17Z</time>
      </trkpt>
      <trkpt lat="45.65231" lon="4.65545">
        <ele>527</ele>
        <time>2022-09-25T21:57:30Z</time>
      </trkpt>
      <trkpt lat="45.65244" lon="4.65544">
        <ele>526</ele>
        <time>2022-09-25T21:57:33Z</time>
      </trkpt>
      <trkpt lat="45.65258" lon="4.65547">
        <ele>525</ele>
        <time>2022-09-25T21:57:36Z</time>
      </trkpt>
      <trkpt lat="45.65293" lon="4.65534">
        <ele>524</ele>
        <time>2022-09-25T21:57:45Z</time>
      </trkpt>
      <trkpt lat="45.65301" lon="4.65513">
        <ele>527</ele>
        <time>2022-09-25T21:57:49Z</time>
      </trkpt>
      <trkpt lat="45.65306" lon="4.65465">
        <ele>533</ele>
        <time>2022-09-25T21:57:57Z</time>
      </trkpt>
      <trkpt lat="45.6531" lon="4.65454">
        <ele>534</ele>
        <time>2022-09-25T21:57:59Z</time>
      </trkpt>
      <trkpt lat="45.65319" lon="4.65434">
        <ele>535</ele>
        <time>2022-09-25T21:58:03Z</time>
      </trkpt>
      <trkpt lat="45.65347" lon="4.65403">
        <ele>535</ele>
        <time>2022-09-25T21:58:11Z</time>
      </trkpt>
      <trkpt lat="45.65354" lon="4.65377">
        <ele>537</ele>
        <time>2022-09-25T21:58:15Z</time>
      </trkpt>
      <trkpt lat="45.65361" lon="4.65362">
        <ele>538</ele>
        <time>2022-09-25T21:58:18Z</time>
      </trkpt>
      <trkpt lat="45.65374" lon="4.65357">
        <ele>537</ele>
        <time>2022-09-25T21:58:21Z</time>
      </trkpt>
      <trkpt lat="45.65389" lon="4.65364">
        <ele>535</ele>
        <time>2022-09-25T21:58:25Z</time>
      </trkpt>
      <trkpt lat="45.65427" lon="4.65393">
        <ele>528</ele>
        <time>2022-09-25T21:58:35Z</time>
      </trkpt>
      <trkpt lat="45.65447" lon="4.65392">
        <ele>529</ele>
        <time>2022-09-25T21:58:40Z</time>
      </trkpt>
      <trkpt lat="45.65458" lon="4.6538">
        <ele>530</ele>
        <time>2022-09-25T21:58:43Z</time>
      </trkpt>
      <trkpt lat="45.65465" lon="4.65356">
        <ele>533</ele>
        <time>2022-09-25T21:58:47Z</time>
      </trkpt>
      <trkpt lat="45.65502" lon="4.65299">
        <ele>538</ele>
        <time>2022-09-25T21:59:00Z</time>
      </trkpt>
      <trkpt lat="45.65539" lon="4.65258">
        <ele>537</ele>
        <time>2022-09-25T21:59:11Z</time>
      </trkpt>
      <trkpt lat="45.65558" lon="4.65226">
        <ele>535</ele>
        <time>2022-09-25T21:59:18Z</time>
      </trkpt>
      <trkpt lat="45.65534" lon="4.65194">
        <ele>537</ele>
        <time>2022-09-25T21:59:26Z</time>
      </trkpt>
      <trkpt lat="45.65472" lon="4.65123">
        <ele>543</ele>
        <time>2022-09-25T21:59:44Z</time>
      </trkpt>
      <trkpt lat="45.65391" lon="4.65008">
        <ele>548</ele>
        <time>2022-09-25T22:00:11Z</time>
      </trkpt>
      <trkpt lat="45.65353" lon="4.64961">
        <ele>548</ele>
        <time>2022-09-25T22:00:22Z</time>
      </trkpt>
      <trkpt lat="45.6525" lon="4.64848">
        <ele>547</ele>
        <time>2022-09-25T22:00:53Z</time>
      </trkpt>
      <trkpt lat="45.65186" lon="4.64767">
        <ele>544</ele>
        <time>2022-09-25T22:01:13Z</time>
      </trkpt>
      <trkpt lat="45.65166" lon="4.64684">
        <ele>542</ele>
        <time>2022-09-25T22:01:27Z</time>
      </trkpt>
      <trkpt lat="45.65042" lon="4.64427">
        <ele>543</ele>
        <time>2022-09-25T22:02:18Z</time>
      </trkpt>
      <trkpt lat="45.65011" lon="4.64384">
        <ele>545</ele>
        <time>2022-09-25T22:02:28Z</time>
      </trkpt>
      <trkpt lat="45.64982" lon="4.64322">
        <ele>549</ele>
        <time>2022-09-25T22:02:40Z</time>
      </trkpt>
      <trkpt lat="45.64938" lon="4.6424">
        <ele>554</ele>
        <time>2022-09-25T22:02:57Z</time>
      </trkpt>
      <trkpt lat="45.64908" lon="4.64249">
        <ele>553</ele>
        <time>2022-09-25T22:03:04Z</time>
      </trkpt>
      <trkpt lat="45.64884" lon="4.64238">
        <ele>550</ele>
        <time>2022-09-25T22:03:10Z</time>
      </trkpt>
      <trkpt lat="45.64875" lon="4.64215">
        <ele>550</ele>
        <time>2022-09-25T22:03:15Z</time>
      </trkpt>
      <trkpt lat="45.64872" lon="4.64196">
        <ele>551</ele>
        <time>2022-09-25T22:03:18Z</time>
      </trkpt>
      <trkpt lat="45.64852" lon="4.64161">
        <ele>550</ele>
        <time>2022-09-25T22:03:25Z</time>
      </trkpt>
      <trkpt lat="45.6483" lon="4.64146">
        <ele>549</ele>
        <time>2022-09-25T22:03:31Z</time>
      </trkpt>
      <trkpt lat="45.6477" lon="4.64118">
        <ele>547</ele>
        <time>2022-09-25T22:03:46Z</time>
      </trkpt>
      <trkpt lat="45.64699" lon="4.64152">
        <ele>541</ele>
        <time>2022-09-25T22:04:03Z</time>
      </trkpt>
      <trkpt lat="45.64664" lon="4.64149">
        <ele>539</ele>
        <time>2022-09-25T22:04:11Z</time>
      </trkpt>
      <trkpt lat="45.64625" lon="4.64116">
        <ele>542</ele>
        <time>2022-09-25T22:04:22Z</time>
      </trkpt>
      <trkpt lat="45.64613" lon="4.64124">
        <ele>541</ele>
        <time>2022-09-25T22:04:25Z</time>
      </trkpt>
      <trkpt lat="45.64557" lon="4.64229">
        <ele>539</ele>
        <time>2022-09-25T22:04:46Z</time>
      </trkpt>
      <trkpt lat="45.64486" lon="4.64253">
        <ele>540</ele>
        <time>2022-09-25T22:05:03Z</time>
      </trkpt>
      <trkpt lat="45.64489" lon="4.6418">
        <ele>539</ele>
        <time>2022-09-25T22:05:15Z</time>
      </trkpt>
      <trkpt lat="45.64496" lon="4.64095">
        <ele>544</ele>
        <time>2022-09-25T22:05:29Z</time>
      </trkpt>
      <trkpt lat="45.64494" lon="4.64055">
        <ele>547</ele>
        <time>2022-09-25T22:05:36Z</time>
      </trkpt>
      <trkpt lat="45.64479" lon="4.64019">
        <ele>549</ele>
        <time>2022-09-25T22:05:43Z</time>
      </trkpt>
      <trkpt lat="45.64431" lon="4.63996">
        <ele>551</ele>
        <time>2022-09-25T22:05:55Z</time>
      </trkpt>
      <trkpt lat="45.64303" lon="4.63987">
        <ele>549</ele>
        <time>2022-09-25T22:06:25Z</time>
      </trkpt>
      <trkpt lat="45.6422" lon="4.63965">
        <ele>542</ele>
        <time>2022-09-25T22:06:44Z</time>
      </trkpt>
      <trkpt lat="45.64195" lon="4.63932">
        <ele>539</ele>
        <time>2022-09-25T22:06:52Z</time>
      </trkpt>
      <trkpt lat="45.64182" lon="4.63896">
        <ele>536</ele>
        <time>2022-09-25T22:06:59Z</time>
      </trkpt>
      <trkpt lat="45.64182" lon="4.6383">
        <ele>532</ele>
        <time>2022-09-25T22:07:10Z</time>
      </trkpt>
      <trkpt lat="45.64175" lon="4.6383">
        <ele>531</ele>
        <time>2022-09-25T22:07:11Z</time>
      </trkpt>
      <trkpt lat="45.64152" lon="4.63864">
        <ele>526</ele>
        <time>2022-09-25T22:07:19Z</time>
      </trkpt>
      <trkpt lat="45.6413" lon="4.63927">
        <ele>522</ele>
        <time>2022-09-25T22:07:30Z</time>
      </trkpt>
      <trkpt lat="45.64121" lon="4.63885">
        <ele>518</ele>
        <time>2022-09-25T22:07:38Z</time>
      </trkpt>
      <trkpt lat="45.64114" lon="4.63816">
        <ele>513</ele>
        <time>2022-09-25T22:07:49Z</time>
      </trkpt>
      <trkpt lat="45.64124" lon="4.63773">
        <ele>514</ele>
        <time>2022-09-25T22:07:56Z</time>
      </trkpt>
      <trkpt lat="45.64137" lon="4.63738">
        <ele>516</ele>
        <time>2022-09-25T22:08:03Z</time>
      </trkpt>
      <trkpt lat="45.64151" lon="4.63715">
        <ele>520</ele>
        <time>2022-09-25T22:08:08Z</time>
      </trkpt>
      <trkpt lat="45.64118" lon="4.63691">
        <ele>515</ele>
        <time>2022-09-25T22:08:16Z</time>
      </trkpt>
      <trkpt lat="45.6411" lon="4.63657">
        <ele>515</ele>
        <time>2022-09-25T22:08:22Z</time>
      </trkpt>
      <trkpt lat="45.64109" lon="4.63628">
        <ele>517</ele>
        <time>2022-09-25T22:08:27Z</time>
      </trkpt>
      <trkpt lat="45.64133" lon="4.63652">
        <ele>520</ele>
        <time>2022-09-25T22:08:34Z</time>
      </trkpt>
      <trkpt lat="45.64148" lon="4.63651">
        <ele>523</ele>
        <time>2022-09-25T22:08:37Z</time>
      </trkpt>
      <trkpt lat="45.64227" lon="4.63567">
        <ele>542</ele>
        <time>2022-09-25T22:09:00Z</time>
      </trkpt>
      <trkpt lat="45.64258" lon="4.6353">
        <ele>553</ele>
        <time>2022-09-25T22:09:10Z</time>
      </trkpt>
      <trkpt lat="45.64291" lon="4.6345">
        <ele>568</ele>
        <time>2022-09-25T22:09:25Z</time>
      </trkpt>
      <trkpt lat="45.64305" lon="4.6336">
        <ele>581</ele>
        <time>2022-09-25T22:09:40Z</time>
      </trkpt>
      <trkpt lat="45.64328" lon="4.63267">
        <ele>594</ele>
        <time>2022-09-25T22:09:56Z</time>
      </trkpt>
      <trkpt lat="45.6433" lon="4.63236">
        <ele>597</ele>
        <time>2022-09-25T22:10:01Z</time>
      </trkpt>
      <trkpt lat="45.64327" lon="4.63186">
        <ele>600</ele>
        <time>2022-09-25T22:10:09Z</time>
      </trkpt>
      <trkpt lat="45.6433" lon="4.6313">
        <ele>605</ele>
        <time>2022-09-25T22:10:19Z</time>
      </trkpt>
      <trkpt lat="45.64341" lon="4.63091">
        <ele>610</ele>
        <time>2022-09-25T22:10:25Z</time>
      </trkpt>
      <trkpt lat="45.64326" lon="4.63049">
        <ele>610</ele>
        <time>2022-09-25T22:10:33Z</time>
      </trkpt>
      <trkpt lat="45.64321" lon="4.62999">
        <ele>611</ele>
        <time>2022-09-25T22:10:41Z</time>
      </trkpt>
      <trkpt lat="45.6429" lon="4.62898">
        <ele>616</ele>
        <time>2022-09-25T22:10:59Z</time>
      </trkpt>
      <trkpt lat="45.64284" lon="4.62858">
        <ele>619</ele>
        <time>2022-09-25T22:11:06Z</time>
      </trkpt>
      <trkpt lat="45.64214" lon="4.62906">
        <ele>627</ele>
        <time>2022-09-25T22:11:24Z</time>
      </trkpt>
      <trkpt lat="45.64167" lon="4.62926">
        <ele>633</ele>
        <time>2022-09-25T22:11:36Z</time>
      </trkpt>
      <trkpt lat="45.64078" lon="4.62992">
        <ele>637</ele>
        <time>2022-09-25T22:11:59Z</time>
      </trkpt>
      <trkpt lat="45.63919" lon="4.63064">
        <ele>630</ele>
        <time>2022-09-25T22:12:38Z</time>
      </trkpt>
      <trkpt lat="45.63881" lon="4.63086">
        <ele>621</ele>
        <time>2022-09-25T22:12:48Z</time>
      </trkpt>
      <trkpt lat="45.63818" lon="4.63116">
        <ele>607</ele>
        <time>2022-09-25T22:13:03Z</time>
      </trkpt>
      <trkpt lat="45.63798" lon="4.63099">
        <ele>603</ele>
        <time>2022-09-25T22:13:09Z</time>
      </trkpt>
      <trkpt lat="45.63769" lon="4.63027">
        <ele>597</ele>
        <time>2022-09-25T22:13:22Z</time>
      </trkpt>
      <trkpt lat="45.63756" lon="4.63001">
        <ele>594</ele>
        <time>2022-09-25T22:13:27Z</time>
      </trkpt>
      <trkpt lat="45.63741" lon="4.62982">
        <ele>594</ele>
        <time>2022-09-25T22:13:32Z</time>
      </trkpt>
      <trkpt lat="45.6373" lon="4.6298">
        <ele>592</ele>
        <time>2022-09-25T22:13:35Z</time>
      </trkpt>
      <trkpt lat="45.63704" lon="4.62955">
        <ele>593</ele>
        <time>2022-09-25T22:13:42Z</time>
      </trkpt>
      <trkpt lat="45.6369" lon="4.62963">
        <ele>588</ele>
        <time>2022-09-25T22:13:45Z</time>
      </trkpt>
      <trkpt lat="45.6359" lon="4.62952">
        <ele>576</ele>
        <time>2022-09-25T22:14:09Z</time>
      </trkpt>
      <trkpt lat="45.63568" lon="4.62956">
        <ele>573</ele>
        <time>2022-09-25T22:14:14Z</time>
      </trkpt>
      <trkpt lat="45.63542" lon="4.62937">
        <ele>572</ele>
        <time>2022-09-25T22:14:21Z</time>
      </trkpt>
      <trkpt lat="45.6357" lon="4.62868">
        <ele>583</ele>
        <time>2022-09-25T22:14:34Z</time>
      </trkpt>
      <trkpt lat="45.63575" lon="4.62828">
        <ele>587</ele>
        <time>2022-09-25T22:14:41Z</time>
      </trkpt>
      <trkpt lat="45.63577" lon="4.62786">
        <ele>588</ele>
        <time>2022-09-25T22:14:47Z</time>
      </trkpt>
      <trkpt lat="45.63598" lon="4.62746">
        <ele>595</ele>
        <time>2022-09-25T22:14:56Z</time>
      </trkpt>
      <trkpt lat="45.63628" lon="4.62699">
        <ele>604</ele>
        <time>2022-09-25T22:15:06Z</time>
      </trkpt>
      <trkpt lat="45.63643" lon="4.62658">
        <ele>608</ele>
        <time>2022-09-25T22:15:14Z</time>
      </trkpt>
      <trkpt lat="45.63662" lon="4.62594">
        <ele>611</ele>
        <time>2022-09-25T22:15:25Z</time>
      </trkpt>
      <trkpt lat="45.63683" lon="4.62549">
        <ele>613</ele>
        <time>2022-09-25T22:15:34Z</time>
      </trkpt>
      <trkpt lat="45.63688" lon="4.62512">
        <ele>611</ele>
        <time>2022-09-25T22:15:40Z</time>
      </trkpt>
      <trkpt lat="45.63708" lon="4.62503">
        <ele>614</ele>
        <time>2022-09-25T22:15:45Z</time>
      </trkpt>
      <trkpt lat="45.63748" lon="4.62436">
        <ele>622</ele>
        <time>2022-09-25T22:15:59Z</time>
      </trkpt>
      <trkpt lat="45.63729" lon="4.624">
        <ele>618</ele>
        <time>2022-09-25T22:16:06Z</time>
      </trkpt>
      <trkpt lat="45.63717" lon="4.6237">
        <ele>617</ele>
        <time>2022-09-25T22:16:12Z</time>
      </trkpt>
      <trkpt lat="45.63718" lon="4.62346">
        <ele>619</ele>
        <time>2022-09-25T22:16:16Z</time>
      </trkpt>
      <trkpt lat="45.63723" lon="4.62319">
        <ele>621</ele>
        <time>2022-09-25T22:16:21Z</time>
      </trkpt>
      <trkpt lat="45.63736" lon="4.62288">
        <ele>622</ele>
        <time>2022-09-25T22:16:27Z</time>
      </trkpt>
      <trkpt lat="45.63752" lon="4.62268">
        <ele>625</ele>
        <time>2022-09-25T22:16:31Z</time>
      </trkpt>
      <trkpt lat="45.63773" lon="4.62228">
        <ele>626</ele>
        <time>2022-09-25T22:16:40Z</time>
      </trkpt>
      <trkpt lat="45.63807" lon="4.62151">
        <ele>626</ele>
        <time>2022-09-25T22:16:55Z</time>
      </trkpt>
      <trkpt lat="45.63871" lon="4.62059">
        <ele>632</ele>
        <time>2022-09-25T22:17:16Z</time>
      </trkpt>
      <trkpt lat="45.63894" lon="4.62001">
        <ele>630</ele>
        <time>2022-09-25T22:17:27Z</time>
      </trkpt>
      <trkpt lat="45.63894" lon="4.61966">
        <ele>633</ele>
        <time>2022-09-25T22:17:32Z</time>
      </trkpt>
      <trkpt lat="45.63881" lon="4.61927">
        <ele>635</ele>
        <time>2022-09-25T22:17:39Z</time>
      </trkpt>
      <trkpt lat="45.63866" lon="4.61895">
        <ele>634</ele>
        <time>2022-09-25T22:17:46Z</time>
      </trkpt>
      <trkpt lat="45.63863" lon="4.61873">
        <ele>634</ele>
        <time>2022-09-25T22:17:49Z</time>
      </trkpt>
      <trkpt lat="45.63876" lon="4.61804">
        <ele>636</ele>
        <time>2022-09-25T22:18:01Z</time>
      </trkpt>
      <trkpt lat="45.63894" lon="4.61727">
        <ele>635</ele>
        <time>2022-09-25T22:18:14Z</time>
      </trkpt>
      <trkpt lat="45.63898" lon="4.61679">
        <ele>634</ele>
        <time>2022-09-25T22:18:22Z</time>
      </trkpt>
      <trkpt lat="45.63911" lon="4.61634">
        <ele>634</ele>
        <time>2022-09-25T22:18:30Z</time>
      </trkpt>
      <trkpt lat="45.63889" lon="4.61542">
        <ele>627</ele>
        <time>2022-09-25T22:18:46Z</time>
      </trkpt>
      <trkpt lat="45.63881" lon="4.61495">
        <ele>624</ele>
        <time>2022-09-25T22:18:54Z</time>
      </trkpt>
      <trkpt lat="45.6382" lon="4.61554">
        <ele>618</ele>
        <time>2022-09-25T22:19:11Z</time>
      </trkpt>
      <trkpt lat="45.63796" lon="4.61601">
        <ele>612</ele>
        <time>2022-09-25T22:19:21Z</time>
      </trkpt>
      <trkpt lat="45.63776" lon="4.61561">
        <ele>608</ele>
        <time>2022-09-25T22:19:29Z</time>
      </trkpt>
      <trkpt lat="45.6376" lon="4.61498">
        <ele>606</ele>
        <time>2022-09-25T22:19:40Z</time>
      </trkpt>
      <trkpt lat="45.63739" lon="4.61473">
        <ele>607</ele>
        <time>2022-09-25T22:19:46Z</time>
      </trkpt>
      <trkpt lat="45.63729" lon="4.61473">
        <ele>606</ele>
        <time>2022-09-25T22:19:48Z</time>
      </trkpt>
      <trkpt lat="45.6368" lon="4.6149">
        <ele>598</ele>
        <time>2022-09-25T22:20:00Z</time>
      </trkpt>
      <trkpt lat="45.63655" lon="4.61503">
        <ele>593</ele>
        <time>2022-09-25T22:20:06Z</time>
      </trkpt>
      <trkpt lat="45.63635" lon="4.61506">
        <ele>591</ele>
        <time>2022-09-25T22:20:11Z</time>
      </trkpt>
      <trkpt lat="45.63608" lon="4.61469">
        <ele>595</ele>
        <time>2022-09-25T22:20:20Z</time>
      </trkpt>
      <trkpt lat="45.63592" lon="4.61461">
        <ele>594</ele>
        <time>2022-09-25T22:20:24Z</time>
      </trkpt>
      <trkpt lat="45.63574" lon="4.61458">
        <ele>595</ele>
        <time>2022-09-25T22:20:28Z</time>
      </trkpt>
      <trkpt lat="45.63552" lon="4.61461">
        <ele>598</ele>
        <time>2022-09-25T22:20:33Z</time>
      </trkpt>
      <trkpt lat="45.63526" lon="4.61471">
        <ele>601</ele>
        <time>2022-09-25T22:20:39Z</time>
      </trkpt>
      <trkpt lat="45.63526" lon="4.61484">
        <ele>599</ele>
        <time>2022-09-25T22:20:41Z</time>
      </trkpt>
      <trkpt lat="45.63501" lon="4.61542">
        <ele>594</ele>
        <time>2022-09-25T22:20:53Z</time>
      </trkpt>
      <trkpt lat="45.6348" lon="4.61572">
        <ele>593</ele>
        <time>2022-09-25T22:20:59Z</time>
      </trkpt>
      <trkpt lat="45.63464" lon="4.61589">
        <ele>593</ele>
        <time>2022-09-25T22:21:04Z</time>
      </trkpt>
      <trkpt lat="45.63439" lon="4.61594">
        <ele>595</ele>
        <time>2022-09-25T22:21:10Z</time>
      </trkpt>
      <trkpt lat="45.63412" lon="4.61588">
        <ele>599</ele>
        <time>2022-09-25T22:21:16Z</time>
      </trkpt>
      <trkpt lat="45.63395" lon="4.6157">
        <ele>601</ele>
        <time>2022-09-25T22:21:21Z</time>
      </trkpt>
      <trkpt lat="45.63355" lon="4.61542">
        <ele>602</ele>
        <time>2022-09-25T22:21:32Z</time>
      </trkpt>
      <trkpt lat="45.63314" lon="4.61502">
        <ele>606</ele>
        <time>2022-09-25T22:21:43Z</time>
      </trkpt>
      <trkpt lat="45.63297" lon="4.61502">
        <ele>605</ele>
        <time>2022-09-25T22:21:47Z</time>
      </trkpt>
      <trkpt lat="45.63246" lon="4.61557">
        <ele>593</ele>
        <time>2022-09-25T22:22:02Z</time>
      </trkpt>
      <trkpt lat="45.63203" lon="4.61639">
        <ele>581</ele>
        <time>2022-09-25T22:22:19Z</time>
      </trkpt>
      <trkpt lat="45.63182" lon="4.61662">
        <ele>579</ele>
        <time>2022-09-25T22:22:25Z</time>
      </trkpt>
      <trkpt lat="45.63152" lon="4.61665">
        <ele>577</ele>
        <time>2022-09-25T22:22:32Z</time>
      </trkpt>
      <trkpt lat="45.63147" lon="4.61731">
        <ele>570</ele>
        <time>2022-09-25T22:22:43Z</time>
      </trkpt>
      <trkpt lat="45.63151" lon="4.61784">
        <ele>565</ele>
        <time>2022-09-25T22:22:52Z</time>
      </trkpt>
      <trkpt lat="45.63134" lon="4.61766">
        <ele>565</ele>
        <time>2022-09-25T22:22:57Z</time>
      </trkpt>
      <trkpt lat="45.63127" lon="4.61743">
        <ele>567</ele>
        <time>2022-09-25T22:23:01Z</time>
      </trkpt>
      <trkpt lat="45.63103" lon="4.61708">
        <ele>566</ele>
        <time>2022-09-25T22:23:09Z</time>
      </trkpt>
      <trkpt lat="45.63081" lon="4.61666">
        <ele>565</ele>
        <time>2022-09-25T22:23:17Z</time>
      </trkpt>
      <trkpt lat="45.63052" lon="4.61658">
        <ele>568</ele>
        <time>2022-09-25T22:23:24Z</time>
      </trkpt>
      <trkpt lat="45.63032" lon="4.61659">
        <ele>569</ele>
        <time>2022-09-25T22:23:29Z</time>
      </trkpt>
      <trkpt lat="45.63018" lon="4.6167">
        <ele>569</ele>
        <time>2022-09-25T22:23:33Z</time>
      </trkpt>
      <trkpt lat="45.62996" lon="4.61701">
        <ele>567</ele>
        <time>2022-09-25T22:23:40Z</time>
      </trkpt>
      <trkpt lat="45.62988" lon="4.61723">
        <ele>567</ele>
        <time>2022-09-25T22:23:44Z</time>
      </trkpt>
      <trkpt lat="45.6297" lon="4.61759">
        <ele>567</ele>
        <time>2022-09-25T22:23:51Z</time>
      </trkpt>
      <trkpt lat="45.62957" lon="4.61808">
        <ele>566</ele>
        <time>2022-09-25T22:24:00Z</time>
      </trkpt>
      <trkpt lat="45.62934" lon="4.6186">
        <ele>566</ele>
        <time>2022-09-25T22:24:10Z</time>
      </trkpt>
      <trkpt lat="45.62905" lon="4.61905">
        <ele>568</ele>
        <time>2022-09-25T22:24:20Z</time>
      </trkpt>
      <trkpt lat="45.62883" lon="4.61953">
        <ele>568</ele>
        <time>2022-09-25T22:24:29Z</time>
      </trkpt>
      <trkpt lat="45.62843" lon="4.61975">
        <ele>576</ele>
        <time>2022-09-25T22:24:39Z</time>
      </trkpt>
      <trkpt lat="45.62827" lon="4.61979">
        <ele>578</ele>
        <time>2022-09-25T22:24:43Z</time>
      </trkpt>
      <trkpt lat="45.62788" lon="4.61955">
        <ele>585</ele>
        <time>2022-09-25T22:24:53Z</time>
      </trkpt>
      <trkpt lat="45.62722" lon="4.61895">
        <ele>596</ele>
        <time>2022-09-25T22:25:11Z</time>
      </trkpt>
      <trkpt lat="45.62704" lon="4.61846">
        <ele>599</ele>
        <time>2022-09-25T22:25:20Z</time>
      </trkpt>
      <trkpt lat="45.62677" lon="4.6175">
        <ele>607</ele>
        <time>2022-09-25T22:25:37Z</time>
      </trkpt>
      <trkpt lat="45.62635" lon="4.61659">
        <ele>610</ele>
        <time>2022-09-25T22:25:55Z</time>
      </trkpt>
      <trkpt lat="45.62637" lon="4.61606">
        <ele>618</ele>
        <time>2022-09-25T22:26:03Z</time>
      </trkpt>
      <trkpt lat="45.62619" lon="4.61576">
        <ele>620</ele>
        <time>2022-09-25T22:26:10Z</time>
      </trkpt>
      <trkpt lat="45.62589" lon="4.61541">
        <ele>624</ele>
        <time>2022-09-25T22:26:19Z</time>
      </trkpt>
      <trkpt lat="45.62569" lon="4.61536">
        <ele>625</ele>
        <time>2022-09-25T22:26:24Z</time>
      </trkpt>
      <trkpt lat="45.62523" lon="4.6154">
        <ele>626</ele>
        <time>2022-09-25T22:26:34Z</time>
      </trkpt>
      <trkpt lat="45.62472" lon="4.61565">
        <ele>620</ele>
        <time>2022-09-25T22:26:47Z</time>
      </trkpt>
      <trkpt lat="45.62424" lon="4.61597">
        <ele>614</ele>
        <time>2022-09-25T22:26:59Z</time>
      </trkpt>
      <trkpt lat="45.62398" lon="4.61594">
        <ele>615</ele>
        <time>2022-09-25T22:27:06Z</time>
      </trkpt>
      <trkpt lat="45.62359" lon="4.61583">
        <ele>616</ele>
        <time>2022-09-25T22:27:15Z</time>
      </trkpt>
      <trkpt lat="45.62322" lon="4.61559">
        <ele>621</ele>
        <time>2022-09-25T22:27:24Z</time>
      </trkpt>
      <trkpt lat="45.62319" lon="4.61533">
        <ele>627</ele>
        <time>2022-09-25T22:27:29Z</time>
      </trkpt>
      <trkpt lat="45.62291" lon="4.61484">
        <ele>636</ele>
        <time>2022-09-25T22:27:39Z</time>
      </trkpt>
      <trkpt lat="45.62253" lon="4.61431">
        <ele>643</ele>
        <time>2022-09-25T22:27:51Z</time>
      </trkpt>
      <trkpt lat="45.62237" lon="4.61419">
        <ele>644</ele>
        <time>2022-09-25T22:27:56Z</time>
      </trkpt>
      <trkpt lat="45.62209" lon="4.61408">
        <ele>644</ele>
        <time>2022-09-25T22:28:02Z</time>
      </trkpt>
      <trkpt lat="45.62191" lon="4.61385">
        <ele>647</ele>
        <time>2022-09-25T22:28:08Z</time>
      </trkpt>
      <trkpt lat="45.62176" lon="4.61356">
        <ele>651</ele>
        <time>2022-09-25T22:28:14Z</time>
      </trkpt>
      <trkpt lat="45.62109" lon="4.61295">
        <ele>661</ele>
        <time>2022-09-25T22:28:32Z</time>
      </trkpt>
      <trkpt lat="45.62076" lon="4.61252">
        <ele>671</ele>
        <time>2022-09-25T22:28:43Z</time>
      </trkpt>
      <trkpt lat="45.6204" lon="4.61231">
        <ele>672</ele>
        <time>2022-09-25T22:28:52Z</time>
      </trkpt>
      <trkpt lat="45.62008" lon="4.61178">
        <ele>679</ele>
        <time>2022-09-25T22:29:03Z</time>
      </trkpt>
      <trkpt lat="45.61991" lon="4.61133">
        <ele>680</ele>
        <time>2022-09-25T22:29:12Z</time>
      </trkpt>
      <trkpt lat="45.62023" lon="4.6099">
        <ele>697</ele>
        <time>2022-09-25T22:29:36Z</time>
      </trkpt>
      <trkpt lat="45.62044" lon="4.60936">
        <ele>711</ele>
        <time>2022-09-25T22:29:46Z</time>
      </trkpt>
      <trkpt lat="45.62051" lon="4.60901">
        <ele>719</ele>
        <time>2022-09-25T22:29:52Z</time>
      </trkpt>
      <trkpt lat="45.62041" lon="4.60884">
        <ele>720</ele>
        <time>2022-09-25T22:29:56Z</time>
      </trkpt>
      <trkpt lat="45.62007" lon="4.60877">
        <ele>715</ele>
        <time>2022-09-25T22:30:04Z</time>
      </trkpt>
      <trkpt lat="45.61972" lon="4.60889">
        <ele>710</ele>
        <time>2022-09-25T22:30:12Z</time>
      </trkpt>
      <trkpt lat="45.61943" lon="4.60883">
        <ele>713</ele>
        <time>2022-09-25T22:30:19Z</time>
      </trkpt>
      <trkpt lat="45.61912" lon="4.60861">
        <ele>724</ele>
        <time>2022-09-25T22:30:27Z</time>
      </trkpt>
      <trkpt lat="45.61848" lon="4.60848">
        <ele>735</ele>
        <time>2022-09-25T22:30:42Z</time>
      </trkpt>
      <trkpt lat="45.61802" lon="4.60818">
        <ele>743</ele>
        <time>2022-09-25T22:30:54Z</time>
      </trkpt>
      <trkpt lat="45.61798" lon="4.60805">
        <ele>746</ele>
        <time>2022-09-25T22:30:56Z</time>
      </trkpt>
      <trkpt lat="45.61797" lon="4.60781">
        <ele>752</ele>
        <time>2022-09-25T22:31:00Z</time>
      </trkpt>
      <trkpt lat="45.61769" lon="4.60783">
        <ele>749</ele>
        <time>2022-09-25T22:31:07Z</time>
      </trkpt>
      <trkpt lat="45.61753" lon="4.60777">
        <ele>750</ele>
        <time>2022-09-25T22:31:11Z</time>
      </trkpt>
      <trkpt lat="45.61734" lon="4.60759">
        <ele>753</ele>
        <time>2022-09-25T22:31:16Z</time>
      </trkpt>
      <trkpt lat="45.6171" lon="4.60756">
        <ele>752</ele>
        <time>2022-09-25T22:31:22Z</time>
      </trkpt>
      <trkpt lat="45.61686" lon="4.60765">
        <ele>748</ele>
        <time>2022-09-25T22:31:28Z</time>
      </trkpt>
      <trkpt lat="45.61642" lon="4.6076">
        <ele>743</ele>
        <time>2022-09-25T22:31:38Z</time>
      </trkpt>
      <trkpt lat="45.61567" lon="4.60654">
        <ele>753</ele>
        <time>2022-09-25T22:32:03Z</time>
      </trkpt>
      <trkpt lat="45.61525" lon="4.60616">
        <ele>755</ele>
        <time>2022-09-25T22:32:14Z</time>
      </trkpt>
      <trkpt lat="45.61498" lon="4.60602">
        <ele>754</ele>
        <time>2022-09-25T22:32:21Z</time>
      </trkpt>
      <trkpt lat="45.61482" lon="4.60572">
        <ele>760</ele>
        <time>2022-09-25T22:32:27Z</time>
      </trkpt>
      <trkpt lat="45.61467" lon="4.60571">
        <ele>759</ele>
        <time>2022-09-25T22:32:30Z</time>
      </trkpt>
      <trkpt lat="45.61456" lon="4.60582">
        <ele>756</ele>
        <time>2022-09-25T22:32:34Z</time>
      </trkpt>
      <trkpt lat="45.61385" lon="4.60578">
        <ele>751</ele>
        <time>2022-09-25T22:32:50Z</time>
      </trkpt>
      <trkpt lat="45.61348" lon="4.60568">
        <ele>748</ele>
        <time>2022-09-25T22:32:59Z</time>
      </trkpt>
      <trkpt lat="45.61308" lon="4.60523">
        <ele>745</ele>
        <time>2022-09-25T22:33:11Z</time>
      </trkpt>
      <trkpt lat="45.613" lon="4.60505">
        <ele>744</ele>
        <time>2022-09-25T22:33:14Z</time>
      </trkpt>
      <trkpt lat="45.61295" lon="4.60404">
        <ele>748</ele>
        <time>2022-09-25T22:33:31Z</time>
      </trkpt>
      <trkpt lat="45.61277" lon="4.6036">
        <ele>747</ele>
        <time>2022-09-25T22:33:39Z</time>
      </trkpt>
      <trkpt lat="45.61258" lon="4.60351">
        <ele>742</ele>
        <time>2022-09-25T22:33:44Z</time>
      </trkpt>
      <trkpt lat="45.61211" lon="4.60277">
        <ele>741</ele>
        <time>2022-09-25T22:34:00Z</time>
      </trkpt>
      <trkpt lat="45.61198" lon="4.6024">
        <ele>743</ele>
        <time>2022-09-25T22:34:07Z</time>
      </trkpt>
      <trkpt lat="45.61188" lon="4.60204">
        <ele>745</ele>
        <time>2022-09-25T22:34:13Z</time>
      </trkpt>
      <trkpt lat="45.6118" lon="4.60096">
        <ele>756</ele>
        <time>2022-09-25T22:34:31Z</time>
      </trkpt>
      <trkpt lat="45.61174" lon="4.60061">
        <ele>760</ele>
        <time>2022-09-25T22:34:37Z</time>
      </trkpt>
      <trkpt lat="45.61163" lon="4.60051">
        <ele>760</ele>
        <time>2022-09-25T22:34:40Z</time>
      </trkpt>
      <trkpt lat="45.61138" lon="4.60047">
        <ele>758</ele>
        <time>2022-09-25T22:34:46Z</time>
      </trkpt>
      <trkpt lat="45.61109" lon="4.60034">
        <ele>758</ele>
        <time>2022-09-25T22:34:53Z</time>
      </trkpt>
      <trkpt lat="45.61071" lon="4.60004">
        <ele>759</ele>
        <time>2022-09-25T22:35:03Z</time>
      </trkpt>
      <trkpt lat="45.61033" lon="4.59946">
        <ele>757</ele>
        <time>2022-09-25T22:35:16Z</time>
      </trkpt>
      <trkpt lat="45.61016" lon="4.5991">
        <ele>756</ele>
        <time>2022-09-25T22:35:23Z</time>
      </trkpt>
      <trkpt lat="45.61029" lon="4.59794">
        <ele>762</ele>
        <time>2022-09-25T22:35:42Z</time>
      </trkpt>
      <trkpt lat="45.61022" lon="4.59773">
        <ele>763</ele>
        <time>2022-09-25T22:35:46Z</time>
      </trkpt>
      <trkpt lat="45.60986" lon="4.59765">
        <ele>761</ele>
        <time>2022-09-25T22:35:55Z</time>
      </trkpt>
      <trkpt lat="45.6093" lon="4.59629">
        <ele>767</ele>
        <time>2022-09-25T22:36:20Z</time>
      </trkpt>
      <trkpt lat="45.60889" lon="4.59578">
        <ele>765</ele>
        <time>2022-09-25T22:36:33Z</time>
      </trkpt>
      <trkpt lat="45.60875" lon="4.59534">
        <ele>764</ele>
        <time>2022-09-25T22:36:41Z</time>
      </trkpt>
      <trkpt lat="45.60871" lon="4.59462">
        <ele>764</ele>
        <time>2022-09-25T22:36:53Z</time>
      </trkpt>
      <trkpt lat="45.60883" lon="4.59358">
        <ele>766</ele>
        <time>2022-09-25T22:37:10Z</time>
      </trkpt>
      <trkpt lat="45.609" lon="4.5916">
        <ele>771</ele>
        <time>2022-09-25T22:37:43Z</time>
      </trkpt>
      <trkpt lat="45.60856" lon="4.59034">
        <ele>769</ele>
        <time>2022-09-25T22:38:06Z</time>
      </trkpt>
      <trkpt lat="45.60865" lon="4.59025">
        <ele>770</ele>
        <time>2022-09-25T22:38:08Z</time>
      </trkpt>
      <trkpt lat="45.61043" lon="4.59055">
        <ele>790</ele>
        <time>2022-09-25T22:38:50Z</time>
      </trkpt>
      <trkpt lat="45.61082" lon="4.59097">
        <ele>795</ele>
        <time>2022-09-25T22:39:02Z</time>
      </trkpt>
      <trkpt lat="45.61131" lon="4.59125">
        <ele>805</ele>
        <time>2022-09-25T22:39:14Z</time>
      </trkpt>
      <trkpt lat="45.61228" lon="4.59239">
        <ele>824</ele>
        <time>2022-09-25T22:39:43Z</time>
      </trkpt>
      <trkpt lat="45.61437" lon="4.59305">
        <ele>846</ele>
        <time>2022-09-25T22:40:33Z</time>
      </trkpt>
      <trkpt lat="45.61829" lon="4.59362">
        <ele>859</ele>
        <time>2022-09-25T22:42:05Z</time>
      </trkpt>
      <trkpt lat="45.61888" lon="4.59351">
        <ele>862</ele>
        <time>2022-09-25T22:42:19Z</time>
      </trkpt>
      <trkpt lat="45.61934" lon="4.59287">
        <ele>862</ele>
        <time>2022-09-25T22:42:34Z</time>
      </trkpt>
      <trkpt lat="45.61985" lon="4.59228">
        <ele>863</ele>
        <time>2022-09-25T22:42:49Z</time>
      </trkpt>
      <trkpt lat="45.62041" lon="4.59099">
        <ele>860</ele>
        <time>2022-09-25T22:43:14Z</time>
      </trkpt>
      <trkpt lat="45.62064" lon="4.59015">
        <ele>856</ele>
        <time>2022-09-25T22:43:29Z</time>
      </trkpt>
      <trkpt lat="45.62094" lon="4.58962">
        <ele>851</ele>
        <time>2022-09-25T22:43:40Z</time>
      </trkpt>
      <trkpt lat="45.62139" lon="4.58898">
        <ele>845</ele>
        <time>2022-09-25T22:43:55Z</time>
      </trkpt>
      <trkpt lat="45.62171" lon="4.58859">
        <ele>842</ele>
        <time>2022-09-25T22:44:05Z</time>
      </trkpt>
      <trkpt lat="45.62207" lon="4.58785">
        <ele>842</ele>
        <time>2022-09-25T22:44:19Z</time>
      </trkpt>
      <trkpt lat="45.6227" lon="4.58791">
        <ele>840</ele>
        <time>2022-09-25T22:44:34Z</time>
      </trkpt>
      <trkpt lat="45.62286" lon="4.58808">
        <ele>836</ele>
        <time>2022-09-25T22:44:39Z</time>
      </trkpt>
      <trkpt lat="45.62303" lon="4.58817">
        <ele>833</ele>
        <time>2022-09-25T22:44:43Z</time>
      </trkpt>
      <trkpt lat="45.62327" lon="4.58816">
        <ele>830</ele>
        <time>2022-09-25T22:44:49Z</time>
      </trkpt>
      <trkpt lat="45.6237" lon="4.58792">
        <ele>823</ele>
        <time>2022-09-25T22:44:59Z</time>
      </trkpt>
      <trkpt lat="45.62421" lon="4.58744">
        <ele>818</ele>
        <time>2022-09-25T22:45:14Z</time>
      </trkpt>
      <trkpt lat="45.6244" lon="4.58715">
        <ele>816</ele>
        <time>2022-09-25T22:45:20Z</time>
      </trkpt>
      <trkpt lat="45.62512" lon="4.58637">
        <ele>805</ele>
        <time>2022-09-25T22:45:41Z</time>
      </trkpt>
      <trkpt lat="45.62544" lon="4.58525">
        <ele>803</ele>
        <time>2022-09-25T22:46:01Z</time>
      </trkpt>
      <trkpt lat="45.6256" lon="4.58495">
        <ele>800</ele>
        <time>2022-09-25T22:46:07Z</time>
      </trkpt>
      <trkpt lat="45.62617" lon="4.58425">
        <ele>789</ele>
        <time>2022-09-25T22:46:25Z</time>
      </trkpt>
      <trkpt lat="45.62649" lon="4.5837">
        <ele>784</ele>
        <time>2022-09-25T22:46:36Z</time>
      </trkpt>
      <trkpt lat="45.62667" lon="4.58344">
        <ele>780</ele>
        <time>2022-09-25T22:46:42Z</time>
      </trkpt>
      <trkpt lat="45.62738" lon="4.58284">
        <ele>761</ele>
        <time>2022-09-25T22:47:02Z</time>
      </trkpt>
      <trkpt lat="45.62757" lon="4.58258">
        <ele>757</ele>
        <time>2022-09-25T22:47:08Z</time>
      </trkpt>
      <trkpt lat="45.62817" lon="4.58263">
        <ele>749</ele>
        <time>2022-09-25T22:47:22Z</time>
      </trkpt>
      <trkpt lat="45.62842" lon="4.58277">
        <ele>748</ele>
        <time>2022-09-25T22:47:28Z</time>
      </trkpt>
      <trkpt lat="45.6288" lon="4.5828">
        <ele>749</ele>
        <time>2022-09-25T22:47:37Z</time>
      </trkpt>
      <trkpt lat="45.62907" lon="4.58243">
        <ele>750</ele>
        <time>2022-09-25T22:47:46Z</time>
      </trkpt>
      <trkpt lat="45.62918" lon="4.5821">
        <ele>751</ele>
        <time>2022-09-25T22:47:52Z</time>
      </trkpt>
      <trkpt lat="45.62901" lon="4.58036">
        <ele>754</ele>
        <time>2022-09-25T22:48:20Z</time>
      </trkpt>
      <trkpt lat="45.62897" lon="4.57956">
        <ele>757</ele>
        <time>2022-09-25T22:48:33Z</time>
      </trkpt>
      <trkpt lat="45.62901" lon="4.57887">
        <ele>760</ele>
        <time>2022-09-25T22:48:45Z</time>
      </trkpt>
      <trkpt lat="45.6291" lon="4.57821">
        <ele>762</ele>
        <time>2022-09-25T22:48:56Z</time>
      </trkpt>
      <trkpt lat="45.62935" lon="4.57746">
        <ele>764</ele>
        <time>2022-09-25T22:49:09Z</time>
      </trkpt>
      <trkpt lat="45.62977" lon="4.57704">
        <ele>765</ele>
        <time>2022-09-25T22:49:21Z</time>
      </trkpt>
      <trkpt lat="45.63087" lon="4.57567">
        <ele>764</ele>
        <time>2022-09-25T22:49:55Z</time>
      </trkpt>
      <trkpt lat="45.631" lon="4.57555">
        <ele>763</ele>
        <time>2022-09-25T22:49:59Z</time>
      </trkpt>
      <trkpt lat="45.63138" lon="4.57568">
        <ele>765</ele>
        <time>2022-09-25T22:50:08Z</time>
      </trkpt>
      <trkpt lat="45.63154" lon="4.57636">
        <ele>769</ele>
        <time>2022-09-25T22:50:20Z</time>
      </trkpt>
      <trkpt lat="45.63153" lon="4.57681">
        <ele>772</ele>
        <time>2022-09-25T22:50:27Z</time>
      </trkpt>
      <trkpt lat="45.63195" lon="4.57852">
        <ele>789</ele>
        <time>2022-09-25T22:50:57Z</time>
      </trkpt>
      <trkpt lat="45.6326" lon="4.58038">
        <ele>810</ele>
        <time>2022-09-25T22:51:31Z</time>
      </trkpt>
      <trkpt lat="45.63303" lon="4.58014">
        <ele>813</ele>
        <time>2022-09-25T22:51:42Z</time>
      </trkpt>
      <trkpt lat="45.6334" lon="4.57987">
        <ele>813</ele>
        <time>2022-09-25T22:51:51Z</time>
      </trkpt>
      <trkpt lat="45.63371" lon="4.57953">
        <ele>813</ele>
        <time>2022-09-25T22:52:00Z</time>
      </trkpt>
      <trkpt lat="45.63426" lon="4.57923">
        <ele>814</ele>
        <time>2022-09-25T22:52:14Z</time>
      </trkpt>
      <trkpt lat="45.63493" lon="4.5792">
        <ele>812</ele>
        <time>2022-09-25T22:52:30Z</time>
      </trkpt>
      <trkpt lat="45.63511" lon="4.57933">
        <ele>813</ele>
        <time>2022-09-25T22:52:34Z</time>
      </trkpt>
      <trkpt lat="45.63527" lon="4.57962">
        <ele>815</ele>
        <time>2022-09-25T22:52:40Z</time>
      </trkpt>
      <trkpt lat="45.63538" lon="4.57989">
        <ele>816</ele>
        <time>2022-09-25T22:52:46Z</time>
      </trkpt>
      <trkpt lat="45.63547" lon="4.5799">
        <ele>816</ele>
        <time>2022-09-25T22:52:48Z</time>
      </trkpt>
      <trkpt lat="45.63574" lon="4.57973">
        <ele>815</ele>
        <time>2022-09-25T22:52:55Z</time>
      </trkpt>
      <trkpt lat="45.63601" lon="4.57938">
        <ele>817</ele>
        <time>2022-09-25T22:53:03Z</time>
      </trkpt>
      <trkpt lat="45.63618" lon="4.57862">
        <ele>815</ele>
        <time>2022-09-25T22:53:16Z</time>
      </trkpt>
      <trkpt lat="45.63656" lon="4.57789">
        <ele>817</ele>
        <time>2022-09-25T22:53:31Z</time>
      </trkpt>
      <trkpt lat="45.63704" lon="4.57752">
        <ele>824</ele>
        <time>2022-09-25T22:53:44Z</time>
      </trkpt>
      <trkpt lat="45.63724" lon="4.57698">
        <ele>827</ele>
        <time>2022-09-25T22:53:54Z</time>
      </trkpt>
      <trkpt lat="45.63726" lon="4.57629">
        <ele>825</ele>
        <time>2022-09-25T22:54:05Z</time>
      </trkpt>
      <trkpt lat="45.63732" lon="4.57596">
        <ele>826</ele>
        <time>2022-09-25T22:54:11Z</time>
      </trkpt>
      <trkpt lat="45.63748" lon="4.5756">
        <ele>828</ele>
        <time>2022-09-25T22:54:18Z</time>
      </trkpt>
      <trkpt lat="45.63764" lon="4.57551">
        <ele>828</ele>
        <time>2022-09-25T22:54:22Z</time>
      </trkpt>
      <trkpt lat="45.63771" lon="4.57589">
        <ele>831</ele>
        <time>2022-09-25T22:54:28Z</time>
      </trkpt>
      <trkpt lat="45.63807" lon="4.57616">
        <ele>834</ele>
        <time>2022-09-25T22:54:37Z</time>
      </trkpt>
      <trkpt lat="45.63811" lon="4.57578">
        <ele>831</ele>
        <time>2022-09-25T22:54:44Z</time>
      </trkpt>
      <trkpt lat="45.6382" lon="4.57557">
        <ele>829</ele>
        <time>2022-09-25T22:54:48Z</time>
      </trkpt>
      <trkpt lat="45.63818" lon="4.57541">
        <ele>828</ele>
        <time>2022-09-25T22:54:50Z</time>
      </trkpt>
      <trkpt lat="45.63811" lon="4.57533">
        <ele>827</ele>
        <time>2022-09-25T22:54:52Z</time>
      </trkpt>
      <trkpt lat="45.63806" lon="4.57516">
        <ele>826</ele>
        <time>2022-09-25T22:54:55Z</time>
      </trkpt>
      <trkpt lat="45.63806" lon="4.57495">
        <ele>824</ele>
        <time>2022-09-25T22:54:59Z</time>
      </trkpt>
      <trkpt lat="45.63813" lon="4.5748">
        <ele>823</ele>
        <time>2022-09-25T22:55:02Z</time>
      </trkpt>
      <trkpt lat="45.63824" lon="4.57472">
        <ele>822</ele>
        <time>2022-09-25T22:55:05Z</time>
      </trkpt>
      <trkpt lat="45.63868" lon="4.57455">
        <ele>816</ele>
        <time>2022-09-25T22:55:15Z</time>
      </trkpt>
      <trkpt lat="45.63885" lon="4.57457">
        <ele>814</ele>
        <time>2022-09-25T22:55:19Z</time>
      </trkpt>
      <trkpt lat="45.63911" lon="4.57468">
        <ele>812</ele>
        <time>2022-09-25T22:55:26Z</time>
      </trkpt>
      <trkpt lat="45.63974" lon="4.57473">
        <ele>804</ele>
        <time>2022-09-25T22:55:40Z</time>
      </trkpt>
      <trkpt lat="45.63988" lon="4.57488">
        <ele>804</ele>
        <time>2022-09-25T22:55:45Z</time>
      </trkpt>
      <trkpt lat="45.64002" lon="4.57509">
        <ele>804</ele>
        <time>2022-09-25T22:55:49Z</time>
      </trkpt>
      <trkpt lat="45.64062" lon="4.57508">
        <ele>797</ele>
        <time>2022-09-25T22:56:03Z</time>
      </trkpt>
      <trkpt lat="45.64087" lon="4.57515">
        <ele>796</ele>
        <time>2022-09-25T22:56:09Z</time>
      </trkpt>
      <trkpt lat="45.64103" lon="4.57499">
        <ele>793</ele>
        <time>2022-09-25T22:56:14Z</time>
      </trkpt>
      <trkpt lat="45.64187" lon="4.57456">
        <ele>786</ele>
        <time>2022-09-25T22:56:35Z</time>
      </trkpt>
      <trkpt lat="45.64286" lon="4.57428">
        <ele>781</ele>
        <time>2022-09-25T22:56:58Z</time>
      </trkpt>
      <trkpt lat="45.64301" lon="4.57472">
        <ele>787</ele>
        <time>2022-09-25T22:57:06Z</time>
      </trkpt>
      <trkpt lat="45.64314" lon="4.57487">
        <ele>788</ele>
        <time>2022-09-25T22:57:10Z</time>
      </trkpt>
      <trkpt lat="45.64329" lon="4.57519">
        <ele>790</ele>
        <time>2022-09-25T22:57:16Z</time>
      </trkpt>
      <trkpt lat="45.64336" lon="4.57548">
        <ele>792</ele>
        <time>2022-09-25T22:57:21Z</time>
      </trkpt>
      <trkpt lat="45.64343" lon="4.57582">
        <ele>795</ele>
        <time>2022-09-25T22:57:27Z</time>
      </trkpt>
      <trkpt lat="45.64324" lon="4.57767">
        <ele>806</ele>
        <time>2022-09-25T22:57:58Z</time>
      </trkpt>
      <trkpt lat="45.64335" lon="4.57931">
        <ele>817</ele>
        <time>2022-09-25T22:58:25Z</time>
      </trkpt>
      <trkpt lat="45.64334" lon="4.57953">
        <ele>818</ele>
        <time>2022-09-25T22:58:28Z</time>
      </trkpt>
      <trkpt lat="45.64326" lon="4.57961">
        <ele>820</ele>
        <time>2022-09-25T22:58:30Z</time>
      </trkpt>
      <trkpt lat="45.64262" lon="4.57971">
        <ele>832</ele>
        <time>2022-09-25T22:58:45Z</time>
      </trkpt>
      <trkpt lat="45.64244" lon="4.57989">
        <ele>837</ele>
        <time>2022-09-25T22:58:51Z</time>
      </trkpt>
      <trkpt lat="45.64245" lon="4.5801">
        <ele>838</ele>
        <time>2022-09-25T22:58:54Z</time>
      </trkpt>
      <trkpt lat="45.64222" lon="4.58037">
        <ele>843</ele>
        <time>2022-09-25T22:59:01Z</time>
      </trkpt>
      <trkpt lat="45.64223" lon="4.58093">
        <ele>846</ele>
        <time>2022-09-25T22:59:10Z</time>
      </trkpt>
      <trkpt lat="45.6421" lon="4.58145">
        <ele>850</ele>
        <time>2022-09-25T22:59:19Z</time>
      </trkpt>
      <trkpt lat="45.64207" lon="4.58183">
        <ele>852</ele>
        <time>2022-09-25T22:59:25Z</time>
      </trkpt>
      <trkpt lat="45.64199" lon="4.58222">
        <ele>854</ele>
        <time>2022-09-25T22:59:32Z</time>
      </trkpt>
      <trkpt lat="45.64193" lon="4.58282">
        <ele>854</ele>
        <time>2022-09-25T22:59:42Z</time>
      </trkpt>
      <trkpt lat="45.64165" lon="4.58397">
        <ele>856</ele>
        <time>2022-09-25T23:00:02Z</time>
      </trkpt>
      <trkpt lat="45.64159" lon="4.5843">
        <ele>856</ele>
        <time>2022-09-25T23:00:07Z</time>
      </trkpt>
      <trkpt lat="45.64204" lon="4.58519">
        <ele>846</ele>
        <time>2022-09-25T23:00:25Z</time>
      </trkpt>
      <trkpt lat="45.64211" lon="4.5854">
        <ele>845</ele>
        <time>2022-09-25T23:00:29Z</time>
      </trkpt>
      <trkpt lat="45.64207" lon="4.58619">
        <ele>849</ele>
        <time>2022-09-25T23:00:42Z</time>
      </trkpt>
      <trkpt lat="45.64215" lon="4.58642">
        <ele>848</ele>
        <time>2022-09-25T23:00:46Z</time>
      </trkpt>
      <trkpt lat="45.64227" lon="4.58665">
        <ele>847</ele>
        <time>2022-09-25T23:00:51Z</time>
      </trkpt>
      <trkpt lat="45.64251" lon="4.58691">
        <ele>845</ele>
        <time>2022-09-25T23:00:58Z</time>
      </trkpt>
      <trkpt lat="45.64245" lon="4.58734">
        <ele>848</ele>
        <time>2022-09-25T23:01:05Z</time>
      </trkpt>
      <trkpt lat="45.64226" lon="4.5876">
        <ele>851</ele>
        <time>2022-09-25T23:01:11Z</time>
      </trkpt>
      <trkpt lat="45.64103" lon="4.58817">
        <ele>870</ele>
        <time>2022-09-25T23:01:41Z</time>
      </trkpt>
      <trkpt lat="45.64078" lon="4.58806">
        <ele>873</ele>
        <time>2022-09-25T23:01:48Z</time>
      </trkpt>
      <trkpt lat="45.64048" lon="4.5888">
        <ele>882</ele>
        <time>2022-09-25T23:02:02Z</time>
      </trkpt>
      <trkpt lat="45.64048" lon="4.5895">
        <ele>885</ele>
        <time>2022-09-25T23:02:13Z</time>
      </trkpt>
      <trkpt lat="45.6404" lon="4.59013">
        <ele>889</ele>
        <time>2022-09-25T23:02:23Z</time>
      </trkpt>
      <trkpt lat="45.64019" lon="4.59064">
        <ele>895</ele>
        <time>2022-09-25T23:02:33Z</time>
      </trkpt>
      <trkpt lat="45.63982" lon="4.59127">
        <ele>904</ele>
        <time>2022-09-25T23:02:47Z</time>
      </trkpt>
      <trkpt lat="45.6395" lon="4.59167">
        <ele>911</ele>
        <time>2022-09-25T23:02:56Z</time>
      </trkpt>
      <trkpt lat="45.63981" lon="4.59324">
        <ele>918</ele>
        <time>2022-09-25T23:03:23Z</time>
      </trkpt>
      <trkpt lat="45.63958" lon="4.59415">
        <ele>924</ele>
        <time>2022-09-25T23:03:39Z</time>
      </trkpt>
      <trkpt lat="45.63924" lon="4.59413">
        <ele>926</ele>
        <time>2022-09-25T23:03:47Z</time>
      </trkpt>
      <trkpt lat="45.63908" lon="4.59441">
        <ele>924</ele>
        <time>2022-09-25T23:03:53Z</time>
      </trkpt>
      <trkpt lat="45.63869" lon="4.59462">
        <ele>921</ele>
        <time>2022-09-25T23:04:02Z</time>
      </trkpt>
      <trkpt lat="45.63809" lon="4.59457">
        <ele>918</ele>
        <time>2022-09-25T23:04:17Z</time>
      </trkpt>
      <trkpt lat="45.63758" lon="4.59386">
        <ele>923</ele>
        <time>2022-09-25T23:04:33Z</time>
      </trkpt>
      <trkpt lat="45.63725" lon="4.59353">
        <ele>919</ele>
        <time>2022-09-25T23:04:43Z</time>
      </trkpt>
      <trkpt lat="45.63719" lon="4.59327">
        <ele>920</ele>
        <time>2022-09-25T23:04:47Z</time>
      </trkpt>
      <trkpt lat="45.63686" lon="4.59271">
        <ele>908</ele>
        <time>2022-09-25T23:04:59Z</time>
      </trkpt>
      <trkpt lat="45.63682" lon="4.5923">
        <ele>905</ele>
        <time>2022-09-25T23:05:06Z</time>
      </trkpt>
      <trkpt lat="45.63663" lon="4.5918">
        <ele>897</ele>
        <time>2022-09-25T23:05:15Z</time>
      </trkpt>
      <trkpt lat="45.6364" lon="4.59187">
        <ele>892</ele>
        <time>2022-09-25T23:05:20Z</time>
      </trkpt>
      <trkpt lat="45.6362" lon="4.59215">
        <ele>889</ele>
        <time>2022-09-25T23:05:27Z</time>
      </trkpt>
      <trkpt lat="45.63577" lon="4.59257">
        <ele>881</ele>
        <time>2022-09-25T23:05:39Z</time>
      </trkpt>
      <trkpt lat="45.63559" lon="4.59286">
        <ele>876</ele>
        <time>2022-09-25T23:05:46Z</time>
      </trkpt>
      <trkpt lat="45.63541" lon="4.59349">
        <ele>868</ele>
        <time>2022-09-25T23:05:57Z</time>
      </trkpt>
      <trkpt lat="45.6351" lon="4.59409">
        <ele>857</ele>
        <time>2022-09-25T23:06:09Z</time>
      </trkpt>
      <trkpt lat="45.63509" lon="4.59466">
        <ele>856</ele>
        <time>2022-09-25T23:06:18Z</time>
      </trkpt>
      <trkpt lat="45.63525" lon="4.59564">
        <ele>859</ele>
        <time>2022-09-25T23:06:35Z</time>
      </trkpt>
      <trkpt lat="45.63558" lon="4.59613">
        <ele>862</ele>
        <time>2022-09-25T23:06:46Z</time>
      </trkpt>
      <trkpt lat="45.63571" lon="4.59661">
        <ele>861</ele>
        <time>2022-09-25T23:06:54Z</time>
      </trkpt>
      <trkpt lat="45.636" lon="4.59702">
        <ele>859</ele>
        <time>2022-09-25T23:07:04Z</time>
      </trkpt>
      <trkpt lat="45.63699" lon="4.59674">
        <ele>854</ele>
        <time>2022-09-25T23:07:27Z</time>
      </trkpt>
      <trkpt lat="45.63962" lon="4.59731">
        <ele>847</ele>
        <time>2022-09-25T23:08:29Z</time>
      </trkpt>
      <trkpt lat="45.64071" lon="4.59721">
        <ele>850</ele>
        <time>2022-09-25T23:08:55Z</time>
      </trkpt>
      <trkpt lat="45.64126" lon="4.59723">
        <ele>846</ele>
        <time>2022-09-25T23:09:08Z</time>
      </trkpt>
      <trkpt lat="45.64155" lon="4.59731">
        <ele>842</ele>
        <time>2022-09-25T23:09:15Z</time>
      </trkpt>
      <trkpt lat="45.64188" lon="4.59728">
        <ele>841</ele>
        <time>2022-09-25T23:09:22Z</time>
      </trkpt>
      <trkpt lat="45.64212" lon="4.5972">
        <ele>843</ele>
        <time>2022-09-25T23:09:28Z</time>
      </trkpt>
      <trkpt lat="45.64234" lon="4.5972">
        <ele>842</ele>
        <time>2022-09-25T23:09:33Z</time>
      </trkpt>
      <trkpt lat="45.64262" lon="4.59727">
        <ele>838</ele>
        <time>2022-09-25T23:09:40Z</time>
      </trkpt>
      <trkpt lat="45.64285" lon="4.59722">
        <ele>836</ele>
        <time>2022-09-25T23:09:45Z</time>
      </trkpt>
      <trkpt lat="45.64304" lon="4.59702">
        <ele>837</ele>
        <time>2022-09-25T23:09:51Z</time>
      </trkpt>
      <trkpt lat="45.64352" lon="4.5968">
        <ele>829</ele>
        <time>2022-09-25T23:10:03Z</time>
      </trkpt>
      <trkpt lat="45.64376" lon="4.59572">
        <ele>823</ele>
        <time>2022-09-25T23:10:21Z</time>
      </trkpt>
      <trkpt lat="45.64397" lon="4.5951">
        <ele>818</ele>
        <time>2022-09-25T23:10:32Z</time>
      </trkpt>
      <trkpt lat="45.64409" lon="4.5948">
        <ele>815</ele>
        <time>2022-09-25T23:10:38Z</time>
      </trkpt>
      <trkpt lat="45.64429" lon="4.59455">
        <ele>809</ele>
        <time>2022-09-25T23:10:44Z</time>
      </trkpt>
      <trkpt lat="45.64451" lon="4.59432">
        <ele>804</ele>
        <time>2022-09-25T23:10:50Z</time>
      </trkpt>
      <trkpt lat="45.64483" lon="4.59392">
        <ele>798</ele>
        <time>2022-09-25T23:11:00Z</time>
      </trkpt>
      <trkpt lat="45.645" lon="4.59376">
        <ele>795</ele>
        <time>2022-09-25T23:11:05Z</time>
      </trkpt>
      <trkpt lat="45.64523" lon="4.59369">
        <ele>791</ele>
        <time>2022-09-25T23:11:11Z</time>
      </trkpt>
      <trkpt lat="45.64541" lon="4.59375">
        <ele>787</ele>
        <time>2022-09-25T23:11:15Z</time>
      </trkpt>
      <trkpt lat="45.64583" lon="4.59351">
        <ele>780</ele>
        <time>2022-09-25T23:11:26Z</time>
      </trkpt>
      <trkpt lat="45.64603" lon="4.59331">
        <ele>776</ele>
        <time>2022-09-25T23:11:31Z</time>
      </trkpt>
      <trkpt lat="45.64626" lon="4.59272">
        <ele>771</ele>
        <time>2022-09-25T23:11:42Z</time>
      </trkpt>
      <trkpt lat="45.6463" lon="4.5924">
        <ele>772</ele>
        <time>2022-09-25T23:11:48Z</time>
      </trkpt>
      <trkpt lat="45.64631" lon="4.59183">
        <ele>776</ele>
        <time>2022-09-25T23:11:57Z</time>
      </trkpt>
      <trkpt lat="45.64636" lon="4.59164">
        <ele>776</ele>
        <time>2022-09-25T23:12:00Z</time>
      </trkpt>
      <trkpt lat="45.64649" lon="4.5914">
        <ele>777</ele>
        <time>2022-09-25T23:12:05Z</time>
      </trkpt>
      <trkpt lat="45.64656" lon="4.59139">
        <ele>776</ele>
        <time>2022-09-25T23:12:07Z</time>
      </trkpt>
      <trkpt lat="45.64678" lon="4.59175">
        <ele>767</ele>
        <time>2022-09-25T23:12:15Z</time>
      </trkpt>
      <trkpt lat="45.6469" lon="4.59201">
        <ele>763</ele>
        <time>2022-09-25T23:12:20Z</time>
      </trkpt>
      <trkpt lat="45.64709" lon="4.59223">
        <ele>757</ele>
        <time>2022-09-25T23:12:25Z</time>
      </trkpt>
      <trkpt lat="45.64739" lon="4.59248">
        <ele>750</ele>
        <time>2022-09-25T23:12:33Z</time>
      </trkpt>
      <trkpt lat="45.64759" lon="4.59259">
        <ele>744</ele>
        <time>2022-09-25T23:12:38Z</time>
      </trkpt>
      <trkpt lat="45.64773" lon="4.59251">
        <ele>740</ele>
        <time>2022-09-25T23:12:42Z</time>
      </trkpt>
      <trkpt lat="45.64792" lon="4.59194">
        <ele>743</ele>
        <time>2022-09-25T23:12:52Z</time>
      </trkpt>
      <trkpt lat="45.64806" lon="4.59164">
        <ele>743</ele>
        <time>2022-09-25T23:12:58Z</time>
      </trkpt>
      <trkpt lat="45.64881" lon="4.5914">
        <ele>734</ele>
        <time>2022-09-25T23:13:16Z</time>
      </trkpt>
      <trkpt lat="45.64906" lon="4.59115">
        <ele>736</ele>
        <time>2022-09-25T23:13:23Z</time>
      </trkpt>
      <trkpt lat="45.64925" lon="4.59113">
        <ele>735</ele>
        <time>2022-09-25T23:13:28Z</time>
      </trkpt>
      <trkpt lat="45.64938" lon="4.59121">
        <ele>735</ele>
        <time>2022-09-25T23:13:31Z</time>
      </trkpt>
      <trkpt lat="45.64978" lon="4.59194">
        <ele>727</ele>
        <time>2022-09-25T23:13:46Z</time>
      </trkpt>
      <trkpt lat="45.65018" lon="4.59239">
        <ele>725</ele>
        <time>2022-09-25T23:13:58Z</time>
      </trkpt>
      <trkpt lat="45.65046" lon="4.59254">
        <ele>726</ele>
        <time>2022-09-25T23:14:05Z</time>
      </trkpt>
      <trkpt lat="45.65073" lon="4.59252">
        <ele>729</ele>
        <time>2022-09-25T23:14:11Z</time>
      </trkpt>
      <trkpt lat="45.6509" lon="4.59235">
        <ele>732</ele>
        <time>2022-09-25T23:14:16Z</time>
      </trkpt>
      <trkpt lat="45.65107" lon="4.59229">
        <ele>732</ele>
        <time>2022-09-25T23:14:20Z</time>
      </trkpt>
      <trkpt lat="45.65197" lon="4.59224">
        <ele>727</ele>
        <time>2022-09-25T23:14:41Z</time>
      </trkpt>
      <trkpt lat="45.65212" lon="4.59256">
        <ele>723</ele>
        <time>2022-09-25T23:14:48Z</time>
      </trkpt>
      <trkpt lat="45.65293" lon="4.5926">
        <ele>717</ele>
        <time>2022-09-25T23:15:07Z</time>
      </trkpt>
      <trkpt lat="45.65328" lon="4.59272">
        <ele>716</ele>
        <time>2022-09-25T23:15:15Z</time>
      </trkpt>
      <trkpt lat="45.65361" lon="4.59294">
        <ele>711</ele>
        <time>2022-09-25T23:15:23Z</time>
      </trkpt>
      <trkpt lat="45.65393" lon="4.59328">
        <ele>709</ele>
        <time>2022-09-25T23:15:33Z</time>
      </trkpt>
      <trkpt lat="45.65444" lon="4.59408">
        <ele>706</ele>
        <time>2022-09-25T23:15:50Z</time>
      </trkpt>
      <trkpt lat="45.65477" lon="4.59474">
        <ele>700</ele>
        <time>2022-09-25T23:16:04Z</time>
      </trkpt>
      <trkpt lat="45.65485" lon="4.59503">
        <ele>699</ele>
        <time>2022-09-25T23:16:09Z</time>
      </trkpt>
      <trkpt lat="45.65504" lon="4.59526">
        <ele>693</ele>
        <time>2022-09-25T23:16:15Z</time>
      </trkpt>
      <trkpt lat="45.65533" lon="4.59568">
        <ele>688</ele>
        <time>2022-09-25T23:16:24Z</time>
      </trkpt>
      <trkpt lat="45.65549" lon="4.5957">
        <ele>684</ele>
        <time>2022-09-25T23:16:28Z</time>
      </trkpt>
      <trkpt lat="45.65584" lon="4.59595">
        <ele>677</ele>
        <time>2022-09-25T23:16:37Z</time>
      </trkpt>
      <trkpt lat="45.65615" lon="4.59648">
        <ele>671</ele>
        <time>2022-09-25T23:16:48Z</time>
      </trkpt>
      <trkpt lat="45.65667" lon="4.59621">
        <ele>661</ele>
        <time>2022-09-25T23:17:01Z</time>
      </trkpt>
      <trkpt lat="45.65671" lon="4.59596">
        <ele>661</ele>
        <time>2022-09-25T23:17:05Z</time>
      </trkpt>
      <trkpt lat="45.65712" lon="4.5962">
        <ele>661</ele>
        <time>2022-09-25T23:17:16Z</time>
      </trkpt>
      <trkpt lat="45.65743" lon="4.5962">
        <ele>660</ele>
        <time>2022-09-25T23:17:23Z</time>
      </trkpt>
      <trkpt lat="45.65776" lon="4.59613">
        <ele>663</ele>
        <time>2022-09-25T23:17:31Z</time>
      </trkpt>
      <trkpt lat="45.6581" lon="4.59594">
        <ele>664</ele>
        <time>2022-09-25T23:17:39Z</time>
      </trkpt>
      <trkpt lat="45.65991" lon="4.59428">
        <ele>657</ele>
        <time>2022-09-25T23:18:30Z</time>
      </trkpt>
      <trkpt lat="45.66034" lon="4.59399">
        <ele>653</ele>
        <time>2022-09-25T23:18:41Z</time>
      </trkpt>
      <trkpt lat="45.6607" lon="4.59394">
        <ele>654</ele>
        <time>2022-09-25T23:18:49Z</time>
      </trkpt>
      <trkpt lat="45.66103" lon="4.59407">
        <ele>653</ele>
        <time>2022-09-25T23:18:57Z</time>
      </trkpt>
      <trkpt lat="45.66153" lon="4.59479">
        <ele>656</ele>
        <time>2022-09-25T23:19:14Z</time>
      </trkpt>
      <trkpt lat="45.66178" lon="4.59509">
        <ele>656</ele>
        <time>2022-09-25T23:19:21Z</time>
      </trkpt>
      <trkpt lat="45.66195" lon="4.59544">
        <ele>656</ele>
        <time>2022-09-25T23:19:28Z</time>
      </trkpt>
      <trkpt lat="45.66216" lon="4.59637">
        <ele>658</ele>
        <time>2022-09-25T23:19:44Z</time>
      </trkpt>
      <trkpt lat="45.66223" lon="4.59683">
        <ele>657</ele>
        <time>2022-09-25T23:19:52Z</time>
      </trkpt>
      <trkpt lat="45.66221" lon="4.59739">
        <ele>656</ele>
        <time>2022-09-25T23:20:01Z</time>
      </trkpt>
      <trkpt lat="45.66205" lon="4.59783">
        <ele>653</ele>
        <time>2022-09-25T23:20:09Z</time>
      </trkpt>
      <trkpt lat="45.66164" lon="4.5986">
        <ele>649</ele>
        <time>2022-09-25T23:20:25Z</time>
      </trkpt>
      <trkpt lat="45.66116" lon="4.59935">
        <ele>646</ele>
        <time>2022-09-25T23:20:42Z</time>
      </trkpt>
      <trkpt lat="45.66083" lon="4.59998">
        <ele>639</ele>
        <time>2022-09-25T23:20:54Z</time>
      </trkpt>
      <trkpt lat="45.65981" lon="4.60103">
        <ele>640</ele>
        <time>2022-09-25T23:21:24Z</time>
      </trkpt>
      <trkpt lat="45.65946" lon="4.60153">
        <ele>635</ele>
        <time>2022-09-25T23:21:35Z</time>
      </trkpt>
      <trkpt lat="45.65899" lon="4.60205">
        <ele>632</ele>
        <time>2022-09-25T23:21:49Z</time>
      </trkpt>
      <trkpt lat="45.65836" lon="4.60249">
        <ele>630</ele>
        <time>2022-09-25T23:22:06Z</time>
      </trkpt>
      <trkpt lat="45.65853" lon="4.60341">
        <ele>627</ele>
        <time>2022-09-25T23:22:21Z</time>
      </trkpt>
      <trkpt lat="45.65878" lon="4.60443">
        <ele>627</ele>
        <time>2022-09-25T23:22:39Z</time>
      </trkpt>
      <trkpt lat="45.65945" lon="4.60629">
        <ele>630</ele>
        <time>2022-09-25T23:23:13Z</time>
      </trkpt>
      <trkpt lat="45.65986" lon="4.60775">
        <ele>638</ele>
        <time>2022-09-25T23:23:39Z</time>
      </trkpt>
      <trkpt lat="45.66025" lon="4.60831">
        <ele>638</ele>
        <time>2022-09-25T23:23:51Z</time>
      </trkpt>
      <trkpt lat="45.66044" lon="4.60875">
        <ele>638</ele>
        <time>2022-09-25T23:24:00Z</time>
      </trkpt>
      <trkpt lat="45.66063" lon="4.60907">
        <ele>637</ele>
        <time>2022-09-25T23:24:07Z</time>
      </trkpt>
      <trkpt lat="45.66098" lon="4.60955">
        <ele>633</ele>
        <time>2022-09-25T23:24:18Z</time>
      </trkpt>
      <trkpt lat="45.66118" lon="4.61004">
        <ele>630</ele>
        <time>2022-09-25T23:24:27Z</time>
      </trkpt>
      <trkpt lat="45.66137" lon="4.61093">
        <ele>630</ele>
        <time>2022-09-25T23:24:43Z</time>
      </trkpt>
      <trkpt lat="45.66148" lon="4.61159">
        <ele>628</ele>
        <time>2022-09-25T23:24:54Z</time>
      </trkpt>
      <trkpt lat="45.66218" lon="4.61245">
        <ele>619</ele>
        <time>2022-09-25T23:25:15Z</time>
      </trkpt>
      <trkpt lat="45.66247" lon="4.61288">
        <ele>616</ele>
        <time>2022-09-25T23:25:25Z</time>
      </trkpt>
      <trkpt lat="45.66287" lon="4.61317">
        <ele>611</ele>
        <time>2022-09-25T23:25:35Z</time>
      </trkpt>
      <trkpt lat="45.66352" lon="4.61334">
        <ele>604</ele>
        <time>2022-09-25T23:25:51Z</time>
      </trkpt>
      <trkpt lat="45.66378" lon="4.61355">
        <ele>599</ele>
        <time>2022-09-25T23:25:58Z</time>
      </trkpt>
      <trkpt lat="45.66393" lon="4.61384">
        <ele>596</ele>
        <time>2022-09-25T23:26:04Z</time>
      </trkpt>
      <trkpt lat="45.66425" lon="4.61474">
        <ele>589</ele>
        <time>2022-09-25T23:26:20Z</time>
      </trkpt>
      <trkpt lat="45.66439" lon="4.61485">
        <ele>585</ele>
        <time>2022-09-25T23:26:24Z</time>
      </trkpt>
      <trkpt lat="45.66475" lon="4.61636">
        <ele>572</ele>
        <time>2022-09-25T23:26:50Z</time>
      </trkpt>
      <trkpt lat="45.66492" lon="4.61675">
        <ele>568</ele>
        <time>2022-09-25T23:26:57Z</time>
      </trkpt>
      <trkpt lat="45.66507" lon="4.61726">
        <ele>562</ele>
        <time>2022-09-25T23:27:06Z</time>
      </trkpt>
      <trkpt lat="45.665" lon="4.61729">
        <ele>563</ele>
        <time>2022-09-25T23:27:08Z</time>
      </trkpt>
      <trkpt lat="45.66494" lon="4.61752">
        <ele>561</ele>
        <time>2022-09-25T23:27:12Z</time>
      </trkpt>
      <trkpt lat="45.66492" lon="4.61775">
        <ele>560</ele>
        <time>2022-09-25T23:27:16Z</time>
      </trkpt>
      <trkpt lat="45.6649" lon="4.61829">
        <ele>556</ele>
        <time>2022-09-25T23:27:25Z</time>
      </trkpt>
      <trkpt lat="45.66494" lon="4.61837">
        <ele>555</ele>
        <time>2022-09-25T23:27:26Z</time>
      </trkpt>
      <trkpt lat="45.66498" lon="4.61879">
        <ele>552</ele>
        <time>2022-09-25T23:27:33Z</time>
      </trkpt>
      <trkpt lat="45.66583" lon="4.62194">
        <ele>542</ele>
        <time>2022-09-25T23:28:28Z</time>
      </trkpt>
      <trkpt lat="45.66641" lon="4.6233">
        <ele>537</ele>
        <time>2022-09-25T23:28:54Z</time>
      </trkpt>
      <trkpt lat="45.66664" lon="4.6234">
        <ele>537</ele>
        <time>2022-09-25T23:29:00Z</time>
      </trkpt>
      <trkpt lat="45.6668" lon="4.62354">
        <ele>536</ele>
        <time>2022-09-25T23:29:04Z</time>
      </trkpt>
      <trkpt lat="45.66711" lon="4.62392">
        <ele>533</ele>
        <time>2022-09-25T23:29:14Z</time>
      </trkpt>
      <trkpt lat="45.66729" lon="4.62452">
        <ele>532</ele>
        <time>2022-09-25T23:29:25Z</time>
      </trkpt>
      <trkpt lat="45.66741" lon="4.62504">
        <ele>532</ele>
        <time>2022-09-25T23:29:34Z</time>
      </trkpt>
      <trkpt lat="45.66753" lon="4.6258">
        <ele>530</ele>
        <time>2022-09-25T23:29:46Z</time>
      </trkpt>
      <trkpt lat="45.66747" lon="4.62621">
        <ele>529</ele>
        <time>2022-09-25T23:29:53Z</time>
      </trkpt>
      <trkpt lat="45.66769" lon="4.62658">
        <ele>523</ele>
        <time>2022-09-25T23:30:01Z</time>
      </trkpt>
      <trkpt lat="45.66755" lon="4.62687">
        <ele>524</ele>
        <time>2022-09-25T23:30:07Z</time>
      </trkpt>
      <trkpt lat="45.66751" lon="4.6271">
        <ele>523</ele>
        <time>2022-09-25T23:30:11Z</time>
      </trkpt>
      <trkpt lat="45.66756" lon="4.62768">
        <ele>518</ele>
        <time>2022-09-25T23:30:20Z</time>
      </trkpt>
      <trkpt lat="45.66748" lon="4.62816">
        <ele>514</ele>
        <time>2022-09-25T23:30:28Z</time>
      </trkpt>
      <trkpt lat="45.66754" lon="4.62843">
        <ele>510</ele>
        <time>2022-09-25T23:30:33Z</time>
      </trkpt>
      <trkpt lat="45.66773" lon="4.62874">
        <ele>503</ele>
        <time>2022-09-25T23:30:40Z</time>
      </trkpt>
      <trkpt lat="45.66795" lon="4.62899">
        <ele>497</ele>
        <time>2022-09-25T23:30:46Z</time>
      </trkpt>
      <trkpt lat="45.66835" lon="4.62932">
        <ele>487</ele>
        <time>2022-09-25T23:30:57Z</time>
      </trkpt>
      <trkpt lat="45.66864" lon="4.6295">
        <ele>479</ele>
        <time>2022-09-25T23:31:04Z</time>
      </trkpt>
      <trkpt lat="45.66872" lon="4.62973">
        <ele>477</ele>
        <time>2022-09-25T23:31:08Z</time>
      </trkpt>
      <trkpt lat="45.66871" lon="4.62997">
        <ele>477</ele>
        <time>2022-09-25T23:31:12Z</time>
      </trkpt>
      <trkpt lat="45.66877" lon="4.63004">
        <ele>476</ele>
        <time>2022-09-25T23:31:14Z</time>
      </trkpt>
      <trkpt lat="45.66898" lon="4.6305">
        <ele>469</ele>
        <time>2022-09-25T23:31:23Z</time>
      </trkpt>
      <trkpt lat="45.66865" lon="4.63071">
        <ele>471</ele>
        <time>2022-09-25T23:31:32Z</time>
      </trkpt>
      <trkpt lat="45.66769" lon="4.63064">
        <ele>476</ele>
        <time>2022-09-25T23:31:54Z</time>
      </trkpt>
      <trkpt lat="45.66745" lon="4.63079">
        <ele>473</ele>
        <time>2022-09-25T23:32:00Z</time>
      </trkpt>
      <trkpt lat="45.66713" lon="4.63105">
        <ele>467</ele>
        <time>2022-09-25T23:32:09Z</time>
      </trkpt>
      <trkpt lat="45.66666" lon="4.63096">
        <ele>468</ele>
        <time>2022-09-25T23:32:20Z</time>
      </trkpt>
      <trkpt lat="45.66629" lon="4.63122">
        <ele>460</ele>
        <time>2022-09-25T23:32:29Z</time>
      </trkpt>
      <trkpt lat="45.66602" lon="4.63129">
        <ele>458</ele>
        <time>2022-09-25T23:32:36Z</time>
      </trkpt>
      <trkpt lat="45.66535" lon="4.63161">
        <ele>451</ele>
        <time>2022-09-25T23:32:52Z</time>
      </trkpt>
      <trkpt lat="45.6652" lon="4.63158">
        <ele>451</ele>
        <time>2022-09-25T23:32:56Z</time>
      </trkpt>
      <trkpt lat="45.66447" lon="4.63153">
        <ele>445</ele>
        <time>2022-09-25T23:33:13Z</time>
      </trkpt>
      <trkpt lat="45.66435" lon="4.6316">
        <ele>444</ele>
        <time>2022-09-25T23:33:16Z</time>
      </trkpt>
      <trkpt lat="45.66425" lon="4.63186">
        <ele>440</ele>
        <time>2022-09-25T23:33:21Z</time>
      </trkpt>
      <trkpt lat="45.66399" lon="4.6316">
        <ele>442</ele>
        <time>2022-09-25T23:33:28Z</time>
      </trkpt>
      <trkpt lat="45.66361" lon="4.63194">
        <ele>441</ele>
        <time>2022-09-25T23:33:39Z</time>
      </trkpt>
      <trkpt lat="45.66355" lon="4.63261">
        <ele>439</ele>
        <time>2022-09-25T23:33:50Z</time>
      </trkpt>
      <trkpt lat="45.66344" lon="4.63325">
        <ele>438</ele>
        <time>2022-09-25T23:34:00Z</time>
      </trkpt>
      <trkpt lat="45.66333" lon="4.63416">
        <ele>440</ele>
        <time>2022-09-25T23:34:16Z</time>
      </trkpt>
      <trkpt lat="45.66363" lon="4.63579">
        <ele>446</ele>
        <time>2022-09-25T23:34:43Z</time>
      </trkpt>
      <trkpt lat="45.66365" lon="4.63615">
        <ele>446</ele>
        <time>2022-09-25T23:34:49Z</time>
      </trkpt>
      <trkpt lat="45.66354" lon="4.63643">
        <ele>448</ele>
        <time>2022-09-25T23:34:54Z</time>
      </trkpt>
      <trkpt lat="45.66313" lon="4.63669">
        <ele>453</ele>
        <time>2022-09-25T23:35:05Z</time>
      </trkpt>
      <trkpt lat="45.66301" lon="4.63686">
        <ele>453</ele>
        <time>2022-09-25T23:35:09Z</time>
      </trkpt>
      <trkpt lat="45.66295" lon="4.63739">
        <ele>447</ele>
        <time>2022-09-25T23:35:17Z</time>
      </trkpt>
      <trkpt lat="45.66314" lon="4.63818">
        <ele>438</ele>
        <time>2022-09-25T23:35:31Z</time>
      </trkpt>
      <trkpt lat="45.6635" lon="4.63988">
        <ele>423</ele>
        <time>2022-09-25T23:36:00Z</time>
      </trkpt>
      <trkpt lat="45.66318" lon="4.63977">
        <ele>423</ele>
        <time>2022-09-25T23:36:08Z</time>
      </trkpt>
      <trkpt lat="45.66269" lon="4.63954">
        <ele>423</ele>
        <time>2022-09-25T23:36:20Z</time>
      </trkpt>
      <trkpt lat="45.66201" lon="4.63929">
        <ele>418</ele>
        <time>2022-09-25T23:36:36Z</time>
      </trkpt>
      <trkpt lat="45.66161" lon="4.63903">
        <ele>416</ele>
        <time>2022-09-25T23:36:46Z</time>
      </trkpt>
      <trkpt lat="45.66123" lon="4.6389">
        <ele>416</ele>
        <time>2022-09-25T23:36:56Z</time>
      </trkpt>
      <trkpt lat="45.66086" lon="4.63882">
        <ele>415</ele>
        <time>2022-09-25T23:37:04Z</time>
      </trkpt>
      <trkpt lat="45.66065" lon="4.63901">
        <ele>411</ele>
        <time>2022-09-25T23:37:10Z</time>
      </trkpt>
      <trkpt lat="45.66042" lon="4.63911">
        <ele>410</ele>
        <time>2022-09-25T23:37:16Z</time>
      </trkpt>
      <trkpt lat="45.66009" lon="4.6391">
        <ele>410</ele>
        <time>2022-09-25T23:37:23Z</time>
      </trkpt>
      <trkpt lat="45.65984" lon="4.63899">
        <ele>413</ele>
        <time>2022-09-25T23:37:30Z</time>
      </trkpt>
      <trkpt lat="45.65963" lon="4.63884">
        <ele>415</ele>
        <time>2022-09-25T23:37:35Z</time>
      </trkpt>
      <trkpt lat="45.65954" lon="4.63909">
        <ele>412</ele>
        <time>2022-09-25T23:37:40Z</time>
      </trkpt>
      <trkpt lat="45.65967" lon="4.63921">
        <ele>410</ele>
        <time>2022-09-25T23:37:43Z</time>
      </trkpt>
      <trkpt lat="45.65968" lon="4.63933">
        <ele>410</ele>
        <time>2022-09-25T23:37:45Z</time>
      </trkpt>
      <trkpt lat="45.65982" lon="4.63947">
        <ele>410</ele>
        <time>2022-09-25T23:37:49Z</time>
      </trkpt>
      <trkpt lat="45.65982" lon="4.63984">
        <ele>409</ele>
        <time>2022-09-25T23:37:55Z</time>
      </trkpt>
      <trkpt lat="45.65988" lon="4.64005">
        <ele>410</ele>
        <time>2022-09-25T23:37:59Z</time>
      </trkpt>
      <trkpt lat="45.65999" lon="4.64015">
        <ele>410</ele>
        <time>2022-09-25T23:38:02Z</time>
      </trkpt>
      <trkpt lat="45.6601" lon="4.64036">
        <ele>412</ele>
        <time>2022-09-25T23:38:06Z</time>
      </trkpt>
      <trkpt lat="45.66023" lon="4.64069">
        <ele>415</ele>
        <time>2022-09-25T23:38:12Z</time>
      </trkpt>
      <trkpt lat="45.66031" lon="4.641">
        <ele>418</ele>
        <time>2022-09-25T23:38:18Z</time>
      </trkpt>
      <trkpt lat="45.66027" lon="4.64112">
        <ele>421</ele>
        <time>2022-09-25T23:38:20Z</time>
      </trkpt>
      <trkpt lat="45.65963" lon="4.64127">
        <ele>428</ele>
        <time>2022-09-25T23:38:35Z</time>
      </trkpt>
      <trkpt lat="45.65939" lon="4.64141">
        <ele>430</ele>
        <time>2022-09-25T23:38:41Z</time>
      </trkpt>
      <trkpt lat="45.65925" lon="4.64156">
        <ele>433</ele>
        <time>2022-09-25T23:38:45Z</time>
      </trkpt>
      <trkpt lat="45.65919" lon="4.64214">
        <ele>444</ele>
        <time>2022-09-25T23:38:55Z</time>
      </trkpt>
      <trkpt lat="45.65931" lon="4.6423">
        <ele>447</ele>
        <time>2022-09-25T23:38:59Z</time>
      </trkpt>
      <trkpt lat="45.65945" lon="4.64236">
        <ele>447</ele>
        <time>2022-09-25T23:39:02Z</time>
      </trkpt>
      <trkpt lat="45.6596" lon="4.64278">
        <ele>452</ele>
        <time>2022-09-25T23:39:10Z</time>
      </trkpt>
      <trkpt lat="45.65977" lon="4.64298">
        <ele>454</ele>
        <time>2022-09-25T23:39:15Z</time>
      </trkpt>
      <trkpt lat="45.6598" lon="4.64325">
        <ele>457</ele>
        <time>2022-09-25T23:39:19Z</time>
      </trkpt>
      <trkpt lat="45.65976" lon="4.64364">
        <ele>460</ele>
        <time>2022-09-25T23:39:26Z</time>
      </trkpt>
      <trkpt lat="45.65966" lon="4.64402">
        <ele>463</ele>
        <time>2022-09-25T23:39:32Z</time>
      </trkpt>
      <trkpt lat="45.65947" lon="4.64456">
        <ele>470</ele>
        <time>2022-09-25T23:39:42Z</time>
      </trkpt>
      <trkpt lat="45.65921" lon="4.64472">
        <ele>475</ele>
        <time>2022-09-25T23:39:49Z</time>
      </trkpt>
      <trkpt lat="45.65913" lon="4.64486">
        <ele>477</ele>
        <time>2022-09-25T23:39:52Z</time>
      </trkpt>
      <trkpt lat="45.65918" lon="4.64535">
        <ele>483</ele>
        <time>2022-09-25T23:40:00Z</time>
      </trkpt>
      <trkpt lat="45.65928" lon="4.64569">
        <ele>486</ele>
        <time>2022-09-25T23:40:06Z</time>
      </trkpt>
      <trkpt lat="45.65928" lon="4.64604">
        <ele>489</ele>
        <time>2022-09-25T23:40:12Z</time>
      </trkpt>
      <trkpt lat="45.65921" lon="4.64633">
        <ele>493</ele>
        <time>2022-09-25T23:40:17Z</time>
      </trkpt>
      <trkpt lat="45.65918" lon="4.64661">
        <ele>495</ele>
        <time>2022-09-25T23:40:21Z</time>
      </trkpt>
      <trkpt lat="45.65916" lon="4.64721">
        <ele>497</ele>
        <time>2022-09-25T23:40:31Z</time>
      </trkpt>
      <trkpt lat="45.65899" lon="4.64807">
        <ele>503</ele>
        <time>2022-09-25T23:40:46Z</time>
      </trkpt>
      <trkpt lat="45.65849" lon="4.64875">
        <ele>510</ele>
        <time>2022-09-25T23:41:02Z</time>
      </trkpt>
      <trkpt lat="45.6581" lon="4.64909">
        <ele>514</ele>
        <time>2022-09-25T23:41:12Z</time>
      </trkpt>
      <trkpt lat="45.6577" lon="4.64955">
        <ele>516</ele>
        <time>2022-09-25T23:41:24Z</time>
      </trkpt>
      <trkpt lat="45.65686" lon="4.65027">
        <ele>521</ele>
        <time>2022-09-25T23:41:47Z</time>
      </trkpt>
      <trkpt lat="45.65562" lon="4.65219">
        <ele>534</ele>
        <time>2022-09-25T23:42:30Z</time>
      </trkpt>
      <trkpt lat="45.65646" lon="4.65288">
        <ele>526</ele>
        <time>2022-09-25T23:42:53Z</time>
      </trkpt>
      <trkpt lat="45.65708" lon="4.65344">
        <ele>525</ele>
        <time>2022-09-25T23:43:10Z</time>
      </trkpt>
      <trkpt lat="45.65728" lon="4.65355">
        <ele>526</ele>
        <time>2022-09-25T23:43:15Z</time>
      </trkpt>
      <trkpt lat="45.6576" lon="4.65411">
        <ele>530</ele>
        <time>2022-09-25T23:43:27Z</time>
      </trkpt>
      <trkpt lat="45.65796" lon="4.6546">
        <ele>527</ele>
        <time>2022-09-25T23:43:38Z</time>
      </trkpt>
      <trkpt lat="45.65842" lon="4.65514">
        <ele>522</ele>
        <time>2022-09-25T23:43:52Z</time>
      </trkpt>
      <trkpt lat="45.65861" lon="4.65563">
        <ele>519</ele>
        <time>2022-09-25T23:44:01Z</time>
      </trkpt>
      <trkpt lat="45.65859" lon="4.65592">
        <ele>519</ele>
        <time>2022-09-25T23:44:06Z</time>
      </trkpt>
      <trkpt lat="45.6587" lon="4.65622">
        <ele>516</ele>
        <time>2022-09-25T23:44:11Z</time>
      </trkpt>
      <trkpt lat="45.65921" lon="4.65676">
        <ele>510</ele>
        <time>2022-09-25T23:44:26Z</time>
      </trkpt>
      <trkpt lat="45.65951" lon="4.65715">
        <ele>507</ele>
        <time>2022-09-25T23:44:36Z</time>
      </trkpt>
      <trkpt lat="45.66008" lon="4.65764">
        <ele>506</ele>
        <time>2022-09-25T23:44:51Z</time>
      </trkpt>
      <trkpt lat="45.66034" lon="4.65802">
        <ele>508</ele>
        <time>2022-09-25T23:45:00Z</time>
      </trkpt>
      <trkpt lat="45.66077" lon="4.65913">
        <ele>509</ele>
        <time>2022-09-25T23:45:21Z</time>
      </trkpt>
      <trkpt lat="45.6609" lon="4.65971">
        <ele>506</ele>
        <time>2022-09-25T23:45:31Z</time>
      </trkpt>
      <trkpt lat="45.66088" lon="4.66077">
        <ele>500</ele>
        <time>2022-09-25T23:45:48Z</time>
      </trkpt>
      <trkpt lat="45.66097" lon="4.66166">
        <ele>495</ele>
        <time>2022-09-25T23:46:03Z</time>
      </trkpt>
      <trkpt lat="45.66086" lon="4.66196">
        <ele>493</ele>
        <time>2022-09-25T23:46:08Z</time>
      </trkpt>
      <trkpt lat="45.66067" lon="4.66234">
        <ele>489</ele>
        <time>2022-09-25T23:46:16Z</time>
      </trkpt>
      <trkpt lat="45.66157" lon="4.6631">
        <ele>480</ele>
        <time>2022-09-25T23:46:40Z</time>
      </trkpt>
      <trkpt lat="45.66191" lon="4.6633">
        <ele>477</ele>
        <time>2022-09-25T23:46:49Z</time>
      </trkpt>
      <trkpt lat="45.66221" lon="4.66367">
        <ele>472</ele>
        <time>2022-09-25T23:46:58Z</time>
      </trkpt>
      <trkpt lat="45.66249" lon="4.66392">
        <ele>467</ele>
        <time>2022-09-25T23:47:06Z</time>
      </trkpt>
      <trkpt lat="45.66282" lon="4.66406">
        <ele>465</ele>
        <time>2022-09-25T23:47:14Z</time>
      </trkpt>
      <trkpt lat="45.66301" lon="4.66423">
        <ele>462</ele>
        <time>2022-09-25T23:47:19Z</time>
      </trkpt>
      <trkpt lat="45.66279" lon="4.66494">
        <ele>458</ele>
        <time>2022-09-25T23:47:32Z</time>
      </trkpt>
      <trkpt lat="45.66281" lon="4.66536">
        <ele>455</ele>
        <time>2022-09-25T23:47:39Z</time>
      </trkpt>
      <trkpt lat="45.66276" lon="4.66586">
        <ele>453</ele>
        <time>2022-09-25T23:47:47Z</time>
      </trkpt>
      <trkpt lat="45.66322" lon="4.66615">
        <ele>449</ele>
        <time>2022-09-25T23:47:59Z</time>
      </trkpt>
      <trkpt lat="45.66345" lon="4.66582">
        <ele>449</ele>
        <time>2022-09-25T23:48:06Z</time>
      </trkpt>
      <trkpt lat="45.66392" lon="4.66592">
        <ele>448</ele>
        <time>2022-09-25T23:48:17Z</time>
      </trkpt>
      <trkpt lat="45.66486" lon="4.66574">
        <ele>449</ele>
        <time>2022-09-25T23:48:39Z</time>
      </trkpt>
      <trkpt lat="45.66602" lon="4.66669">
        <ele>443</ele>
        <time>2022-09-25T23:49:11Z</time>
      </trkpt>
      <trkpt lat="45.66624" lon="4.66703">
        <ele>441</ele>
        <time>2022-09-25T23:49:18Z</time>
      </trkpt>
      <trkpt lat="45.66643" lon="4.66759">
        <ele>439</ele>
        <time>2022-09-25T23:49:28Z</time>
      </trkpt>
      <trkpt lat="45.6665" lon="4.66813">
        <ele>436</ele>
        <time>2022-09-25T23:49:37Z</time>
      </trkpt>
      <trkpt lat="45.66679" lon="4.66864">
        <ele>434</ele>
        <time>2022-09-25T23:49:48Z</time>
      </trkpt>
      <trkpt lat="45.66703" lon="4.66843">
        <ele>433</ele>
        <time>2022-09-25T23:49:55Z</time>
      </trkpt>
      <trkpt lat="45.66723" lon="4.6681">
        <ele>432</ele>
        <time>2022-09-25T23:50:02Z</time>
      </trkpt>
      <trkpt lat="45.66734" lon="4.66746">
        <ele>433</ele>
        <time>2022-09-25T23:50:12Z</time>
      </trkpt>
      <trkpt lat="45.66816" lon="4.66853">
        <ele>420</ele>
        <time>2022-09-25T23:50:38Z</time>
      </trkpt>
      <trkpt lat="45.66843" lon="4.66895">
        <ele>419</ele>
        <time>2022-09-25T23:50:48Z</time>
      </trkpt>
      <trkpt lat="45.66846" lon="4.66915">
        <ele>419</ele>
        <time>2022-09-25T23:50:51Z</time>
      </trkpt>
      <trkpt lat="45.6693" lon="4.67074">
        <ele>413</ele>
        <time>2022-09-25T23:51:24Z</time>
      </trkpt>
      <trkpt lat="45.66932" lon="4.671">
        <ele>413</ele>
        <time>2022-09-25T23:51:28Z</time>
      </trkpt>
      <trkpt lat="45.66946" lon="4.67126">
        <ele>412</ele>
        <time>2022-09-25T23:51:33Z</time>
      </trkpt>
      <trkpt lat="45.66962" lon="4.67127">
        <ele>411</ele>
        <time>2022-09-25T23:51:37Z</time>
      </trkpt>
      <trkpt lat="45.66993" lon="4.67226">
        <ele>411</ele>
        <time>2022-09-25T23:51:55Z</time>
      </trkpt>
      <trkpt lat="45.67016" lon="4.67262">
        <ele>410</ele>
        <time>2022-09-25T23:52:03Z</time>
      </trkpt>
      <trkpt lat="45.67027" lon="4.67287">
        <ele>410</ele>
        <time>2022-09-25T23:52:07Z</time>
      </trkpt>
      <trkpt lat="45.67052" lon="4.67368">
        <ele>409</ele>
        <time>2022-09-25T23:52:22Z</time>
      </trkpt>
      <trkpt lat="45.67087" lon="4.67434">
        <ele>406</ele>
        <time>2022-09-25T23:52:35Z</time>
      </trkpt>
      <trkpt lat="45.67116" lon="4.6752">
        <ele>404</ele>
        <time>2022-09-25T23:52:51Z</time>
      </trkpt>
      <trkpt lat="45.67124" lon="4.67572">
        <ele>405</ele>
        <time>2022-09-25T23:53:00Z</time>
      </trkpt>
      <trkpt lat="45.67121" lon="4.67639">
        <ele>405</ele>
        <time>2022-09-25T23:53:11Z</time>
      </trkpt>
      <trkpt lat="45.67148" lon="4.67724">
        <ele>403</ele>
        <time>2022-09-25T23:53:26Z</time>
      </trkpt>
      <trkpt lat="45.67148" lon="4.67818">
        <ele>399</ele>
        <time>2022-09-25T23:53:41Z</time>
      </trkpt>
      <trkpt lat="45.67183" lon="4.67974">
        <ele>392</ele>
        <time>2022-09-25T23:54:08Z</time>
      </trkpt>
      <trkpt lat="45.67221" lon="4.68102">
        <ele>387</ele>
        <time>2022-09-25T23:54:31Z</time>
      </trkpt>
      <trkpt lat="45.67196" lon="4.68196">
        <ele>384</ele>
        <time>2022-09-25T23:54:47Z</time>
      </trkpt>
      <trkpt lat="45.672" lon="4.68315">
        <ele>382</ele>
        <time>2022-09-25T23:55:06Z</time>
      </trkpt>
      <trkpt lat="45.67199" lon="4.68459">
        <ele>378</ele>
        <time>2022-09-25T23:55:30Z</time>
      </trkpt>
      <trkpt lat="45.67232" lon="4.68489">
        <ele>377</ele>
        <time>2022-09-25T23:55:39Z</time>
      </trkpt>
      <trkpt lat="45.67249" lon="4.68514">
        <ele>376</ele>
        <time>2022-09-25T23:55:45Z</time>
      </trkpt>
      <trkpt lat="45.67313" lon="4.68554">
        <ele>375</ele>
        <time>2022-09-25T23:56:01Z</time>
      </trkpt>
      <trkpt lat="45.67403" lon="4.68773">
        <ele>376</ele>
        <time>2022-09-25T23:56:43Z</time>
      </trkpt>
      <trkpt lat="45.67422" lon="4.68833">
        <ele>378</ele>
        <time>2022-09-25T23:56:53Z</time>
      </trkpt>
      <trkpt lat="45.6744" lon="4.6894">
        <ele>379</ele>
        <time>2022-09-25T23:57:11Z</time>
      </trkpt>
      <trkpt lat="45.67456" lon="4.69">
        <ele>378</ele>
        <time>2022-09-25T23:57:22Z</time>
      </trkpt>
      <trkpt lat="45.67499" lon="4.69066">
        <ele>378</ele>
        <time>2022-09-25T23:57:36Z</time>
      </trkpt>
      <trkpt lat="45.67591" lon="4.6915">
        <ele>375</ele>
        <time>2022-09-25T23:58:02Z</time>
      </trkpt>
      <trkpt lat="45.67671" lon="4.69192">
        <ele>371</ele>
        <time>2022-09-25T23:58:22Z</time>
      </trkpt>
      <trkpt lat="45.67714" lon="4.69245">
        <ele>369</ele>
        <time>2022-09-25T23:58:35Z</time>
      </trkpt>
      <trkpt lat="45.67749" lon="4.69298">
        <ele>367</ele>
        <time>2022-09-25T23:58:47Z</time>
      </trkpt>
      <trkpt lat="45.67762" lon="4.69303">
        <ele>367</ele>
        <time>2022-09-25T23:58:50Z</time>
      </trkpt>
      <trkpt lat="45.67758" lon="4.69327">
        <ele>367</ele>
        <time>2022-09-25T23:58:54Z</time>
      </trkpt>
      <trkpt lat="45.67782" lon="4.69378">
        <ele>367</ele>
        <time>2022-09-25T23:59:04Z</time>
      </trkpt>
      <trkpt lat="45.6779" lon="4.69502">
        <ele>366</ele>
        <time>2022-09-25T23:59:25Z</time>
      </trkpt>
      <trkpt lat="45.67829" lon="4.69659">
        <ele>364</ele>
        <time>2022-09-25T23:59:52Z</time>
      </trkpt>
      <trkpt lat="45.67841" lon="4.69722">
        <ele>362</ele>
        <time>2022-09-26T00:00:02Z</time>
      </trkpt>
      <trkpt lat="45.67843" lon="4.6989">
        <ele>356</ele>
        <time>2022-09-26T00:00:30Z</time>
      </trkpt>
      <trkpt lat="45.6787" lon="4.70013">
        <ele>352</ele>
        <time>2022-09-26T00:00:51Z</time>
      </trkpt>
      <trkpt lat="45.67881" lon="4.70117">
        <ele>348</ele>
        <time>2022-09-26T00:01:08Z</time>
      </trkpt>
    </trkseg>
  </trk>
</gpx>